<?xml version="1.0" encoding="UTF-8" standalone="no" ?>
<gpx xmlns="http://www.topografix.com/GPX/1/1" xmlns:xsi="http://www.w3.org/2001/XMLSchema-instance" xsi:schemaLocation="http://www.topografix.com/GPX/1/1 http://www.topografix.com/GPX/1/1/gpx.xsd" version="1.1" creator="VisuGPX - https://www.visugpx.com">
  <metadata>
    <name>ONET LE CHATEAU</name>
    <desc><![CDATA[8Km 2h
plat pas de difficulté]]></desc>
  </metadata>
  <wpt lat="44.39376" lon="2.53906">
    <ele>343</ele>
  </wpt>
  <wpt lat="44.39094" lon="2.53881">
    <ele>631</ele>
  </wpt>
  <trk>
    <name><![CDATA[ONET LE CHATEAU_1]]></name>
    <trkseg>
      <trkpt lat="44.39376" lon="2.53906">
        <ele>343</ele>
        <time>2009-01-20T13:14:45Z</time>
      </trkpt>
      <trkpt lat="44.39334" lon="2.53582">
        <ele>588</ele>
        <time>2009-01-20T13:14:46Z</time>
      </trkpt>
      <trkpt lat="44.39347" lon="2.53577">
        <ele>601</ele>
        <time>2009-01-20T13:14:56Z</time>
      </trkpt>
      <trkpt lat="44.39352" lon="2.53568">
        <ele>610</ele>
        <time>2009-01-20T13:15:06Z</time>
      </trkpt>
      <trkpt lat="44.3936" lon="2.5356">
        <ele>610</ele>
        <time>2009-01-20T13:15:13Z</time>
      </trkpt>
      <trkpt lat="44.39367" lon="2.53553">
        <ele>594</ele>
        <time>2009-01-20T13:15:21Z</time>
      </trkpt>
      <trkpt lat="44.39374" lon="2.53543">
        <ele>594</ele>
        <time>2009-01-20T13:15:32Z</time>
      </trkpt>
      <trkpt lat="44.39381" lon="2.53537">
        <ele>594</ele>
        <time>2009-01-20T13:15:50Z</time>
      </trkpt>
      <trkpt lat="44.39389" lon="2.53531">
        <ele>594</ele>
        <time>2009-01-20T13:15:56Z</time>
      </trkpt>
      <trkpt lat="44.39397" lon="2.53523">
        <ele>594</ele>
        <time>2009-01-20T13:16:03Z</time>
      </trkpt>
      <trkpt lat="44.39405" lon="2.53517">
        <ele>594</ele>
        <time>2009-01-20T13:16:10Z</time>
      </trkpt>
      <trkpt lat="44.39412" lon="2.5351">
        <ele>594</ele>
        <time>2009-01-20T13:16:17Z</time>
      </trkpt>
      <trkpt lat="44.39419" lon="2.53502">
        <ele>601</ele>
        <time>2009-01-20T13:16:24Z</time>
      </trkpt>
      <trkpt lat="44.39427" lon="2.53497">
        <ele>601</ele>
        <time>2009-01-20T13:16:31Z</time>
      </trkpt>
      <trkpt lat="44.39436" lon="2.53497">
        <ele>601</ele>
        <time>2009-01-20T13:16:38Z</time>
      </trkpt>
      <trkpt lat="44.39445" lon="2.535">
        <ele>601</ele>
        <time>2009-01-20T13:16:50Z</time>
      </trkpt>
      <trkpt lat="44.39454" lon="2.53506">
        <ele>610</ele>
        <time>2009-01-20T13:17:02Z</time>
      </trkpt>
      <trkpt lat="44.3946" lon="2.53516">
        <ele>610</ele>
        <time>2009-01-20T13:17:13Z</time>
      </trkpt>
      <trkpt lat="44.39468" lon="2.53525">
        <ele>610</ele>
        <time>2009-01-20T13:17:19Z</time>
      </trkpt>
      <trkpt lat="44.39476" lon="2.53532">
        <ele>610</ele>
        <time>2009-01-20T13:17:26Z</time>
      </trkpt>
      <trkpt lat="44.39484" lon="2.53535">
        <ele>610</ele>
        <time>2009-01-20T13:17:34Z</time>
      </trkpt>
      <trkpt lat="44.39492" lon="2.53542">
        <ele>603</ele>
        <time>2009-01-20T13:17:39Z</time>
      </trkpt>
      <trkpt lat="44.39499" lon="2.53551">
        <ele>603</ele>
        <time>2009-01-20T13:17:45Z</time>
      </trkpt>
      <trkpt lat="44.39506" lon="2.53558">
        <ele>603</ele>
        <time>2009-01-20T13:17:53Z</time>
      </trkpt>
      <trkpt lat="44.39514" lon="2.53565">
        <ele>597</ele>
        <time>2009-01-20T13:18:00Z</time>
      </trkpt>
      <trkpt lat="44.39523" lon="2.53568">
        <ele>597</ele>
        <time>2009-01-20T13:18:09Z</time>
      </trkpt>
      <trkpt lat="44.39531" lon="2.53574">
        <ele>604</ele>
        <time>2009-01-20T13:18:18Z</time>
      </trkpt>
      <trkpt lat="44.39539" lon="2.53584">
        <ele>604</ele>
        <time>2009-01-20T13:18:27Z</time>
      </trkpt>
      <trkpt lat="44.39544" lon="2.53594">
        <ele>604</ele>
        <time>2009-01-20T13:18:34Z</time>
      </trkpt>
      <trkpt lat="44.39548" lon="2.53607">
        <ele>604</ele>
        <time>2009-01-20T13:18:44Z</time>
      </trkpt>
      <trkpt lat="44.39552" lon="2.53621">
        <ele>604</ele>
        <time>2009-01-20T13:18:50Z</time>
      </trkpt>
      <trkpt lat="44.39557" lon="2.5363">
        <ele>598</ele>
        <time>2009-01-20T13:18:57Z</time>
      </trkpt>
      <trkpt lat="44.39559" lon="2.53643">
        <ele>598</ele>
        <time>2009-01-20T13:19:06Z</time>
      </trkpt>
      <trkpt lat="44.39561" lon="2.53656">
        <ele>607</ele>
        <time>2009-01-20T13:19:16Z</time>
      </trkpt>
      <trkpt lat="44.39566" lon="2.53665">
        <ele>607</ele>
        <time>2009-01-20T13:19:25Z</time>
      </trkpt>
      <trkpt lat="44.39571" lon="2.53676">
        <ele>607</ele>
        <time>2009-01-20T13:19:33Z</time>
      </trkpt>
      <trkpt lat="44.39577" lon="2.53686">
        <ele>607</ele>
        <time>2009-01-20T13:19:39Z</time>
      </trkpt>
      <trkpt lat="44.39582" lon="2.53697">
        <ele>607</ele>
        <time>2009-01-20T13:19:47Z</time>
      </trkpt>
      <trkpt lat="44.39586" lon="2.53709">
        <ele>607</ele>
        <time>2009-01-20T13:19:53Z</time>
      </trkpt>
      <trkpt lat="44.39592" lon="2.53721">
        <ele>607</ele>
        <time>2009-01-20T13:20:00Z</time>
      </trkpt>
      <trkpt lat="44.39597" lon="2.53732">
        <ele>607</ele>
        <time>2009-01-20T13:20:08Z</time>
      </trkpt>
      <trkpt lat="44.39602" lon="2.53742">
        <ele>602</ele>
        <time>2009-01-20T13:20:14Z</time>
      </trkpt>
      <trkpt lat="44.39609" lon="2.53751">
        <ele>602</ele>
        <time>2009-01-20T13:20:22Z</time>
      </trkpt>
      <trkpt lat="44.39617" lon="2.53759">
        <ele>602</ele>
        <time>2009-01-20T13:20:29Z</time>
      </trkpt>
      <trkpt lat="44.39626" lon="2.53763">
        <ele>602</ele>
        <time>2009-01-20T13:20:38Z</time>
      </trkpt>
      <trkpt lat="44.39635" lon="2.53768">
        <ele>607</ele>
        <time>2009-01-20T13:20:48Z</time>
      </trkpt>
      <trkpt lat="44.39641" lon="2.53777">
        <ele>607</ele>
        <time>2009-01-20T13:20:54Z</time>
      </trkpt>
      <trkpt lat="44.39648" lon="2.53786">
        <ele>602</ele>
        <time>2009-01-20T13:21:01Z</time>
      </trkpt>
      <trkpt lat="44.39655" lon="2.53793">
        <ele>602</ele>
        <time>2009-01-20T13:21:08Z</time>
      </trkpt>
      <trkpt lat="44.39664" lon="2.53797">
        <ele>602</ele>
        <time>2009-01-20T13:21:16Z</time>
      </trkpt>
      <trkpt lat="44.39673" lon="2.53797">
        <ele>602</ele>
        <time>2009-01-20T13:21:24Z</time>
      </trkpt>
      <trkpt lat="44.39682" lon="2.53797">
        <ele>602</ele>
        <time>2009-01-20T13:21:32Z</time>
      </trkpt>
      <trkpt lat="44.39692" lon="2.53797">
        <ele>602</ele>
        <time>2009-01-20T13:21:42Z</time>
      </trkpt>
      <trkpt lat="44.39702" lon="2.53797">
        <ele>602</ele>
        <time>2009-01-20T13:21:50Z</time>
      </trkpt>
      <trkpt lat="44.39711" lon="2.53797">
        <ele>602</ele>
        <time>2009-01-20T13:21:58Z</time>
      </trkpt>
      <trkpt lat="44.3972" lon="2.53797">
        <ele>596</ele>
        <time>2009-01-20T13:22:06Z</time>
      </trkpt>
      <trkpt lat="44.39729" lon="2.53797">
        <ele>596</ele>
        <time>2009-01-20T13:22:15Z</time>
      </trkpt>
      <trkpt lat="44.39738" lon="2.53797">
        <ele>596</ele>
        <time>2009-01-20T13:22:22Z</time>
      </trkpt>
      <trkpt lat="44.39747" lon="2.53795">
        <ele>596</ele>
        <time>2009-01-20T13:22:34Z</time>
      </trkpt>
      <trkpt lat="44.39755" lon="2.53788">
        <ele>589</ele>
        <time>2009-01-20T13:22:45Z</time>
      </trkpt>
      <trkpt lat="44.3976" lon="2.53779">
        <ele>589</ele>
        <time>2009-01-20T13:23:05Z</time>
      </trkpt>
      <trkpt lat="44.39765" lon="2.53768">
        <ele>589</ele>
        <time>2009-01-20T13:23:15Z</time>
      </trkpt>
      <trkpt lat="44.39772" lon="2.53761">
        <ele>589</ele>
        <time>2009-01-20T13:23:22Z</time>
      </trkpt>
      <trkpt lat="44.39779" lon="2.53752">
        <ele>594</ele>
        <time>2009-01-20T13:23:30Z</time>
      </trkpt>
      <trkpt lat="44.39787" lon="2.53744">
        <ele>594</ele>
        <time>2009-01-20T13:23:37Z</time>
      </trkpt>
      <trkpt lat="44.39794" lon="2.53736">
        <ele>594</ele>
        <time>2009-01-20T13:23:46Z</time>
      </trkpt>
      <trkpt lat="44.39801" lon="2.53729">
        <ele>594</ele>
        <time>2009-01-20T13:23:55Z</time>
      </trkpt>
      <trkpt lat="44.39808" lon="2.53721">
        <ele>588</ele>
        <time>2009-01-20T13:24:04Z</time>
      </trkpt>
      <trkpt lat="44.39816" lon="2.53714">
        <ele>588</ele>
        <time>2009-01-20T13:24:11Z</time>
      </trkpt>
      <trkpt lat="44.39824" lon="2.53708">
        <ele>588</ele>
        <time>2009-01-20T13:24:17Z</time>
      </trkpt>
      <trkpt lat="44.39832" lon="2.53711">
        <ele>588</ele>
        <time>2009-01-20T13:24:25Z</time>
      </trkpt>
      <trkpt lat="44.39841" lon="2.53715">
        <ele>588</ele>
        <time>2009-01-20T13:24:31Z</time>
      </trkpt>
      <trkpt lat="44.3985" lon="2.53716">
        <ele>588</ele>
        <time>2009-01-20T13:24:39Z</time>
      </trkpt>
      <trkpt lat="44.39859" lon="2.53718">
        <ele>588</ele>
        <time>2009-01-20T13:24:48Z</time>
      </trkpt>
      <trkpt lat="44.39867" lon="2.53725">
        <ele>588</ele>
        <time>2009-01-20T13:25:01Z</time>
      </trkpt>
      <trkpt lat="44.39876" lon="2.53728">
        <ele>588</ele>
        <time>2009-01-20T13:25:10Z</time>
      </trkpt>
      <trkpt lat="44.39884" lon="2.53733">
        <ele>588</ele>
        <time>2009-01-20T13:25:17Z</time>
      </trkpt>
      <trkpt lat="44.39893" lon="2.53735">
        <ele>588</ele>
        <time>2009-01-20T13:25:25Z</time>
      </trkpt>
      <trkpt lat="44.39902" lon="2.5374">
        <ele>588</ele>
        <time>2009-01-20T13:25:34Z</time>
      </trkpt>
      <trkpt lat="44.3991" lon="2.53746">
        <ele>581</ele>
        <time>2009-01-20T13:25:45Z</time>
      </trkpt>
      <trkpt lat="44.39919" lon="2.53753">
        <ele>581</ele>
        <time>2009-01-20T13:25:53Z</time>
      </trkpt>
      <trkpt lat="44.39928" lon="2.53755">
        <ele>581</ele>
        <time>2009-01-20T13:26:02Z</time>
      </trkpt>
      <trkpt lat="44.39937" lon="2.53758">
        <ele>581</ele>
        <time>2009-01-20T13:26:14Z</time>
      </trkpt>
      <trkpt lat="44.39944" lon="2.53765">
        <ele>581</ele>
        <time>2009-01-20T13:26:23Z</time>
      </trkpt>
      <trkpt lat="44.39953" lon="2.53769">
        <ele>581</ele>
        <time>2009-01-20T13:26:37Z</time>
      </trkpt>
      <trkpt lat="44.39962" lon="2.5377">
        <ele>581</ele>
        <time>2009-01-20T13:26:49Z</time>
      </trkpt>
      <trkpt lat="44.39971" lon="2.53772">
        <ele>581</ele>
        <time>2009-01-20T13:27:00Z</time>
      </trkpt>
      <trkpt lat="44.39979" lon="2.53776">
        <ele>581</ele>
        <time>2009-01-20T13:27:10Z</time>
      </trkpt>
      <trkpt lat="44.39988" lon="2.53776">
        <ele>581</ele>
        <time>2009-01-20T13:27:23Z</time>
      </trkpt>
      <trkpt lat="44.39996" lon="2.53772">
        <ele>581</ele>
        <time>2009-01-20T13:27:33Z</time>
      </trkpt>
      <trkpt lat="44.40006" lon="2.53774">
        <ele>594</ele>
        <time>2009-01-20T13:27:51Z</time>
      </trkpt>
      <trkpt lat="44.40013" lon="2.53781">
        <ele>594</ele>
        <time>2009-01-20T13:28:00Z</time>
      </trkpt>
      <trkpt lat="44.40022" lon="2.53787">
        <ele>594</ele>
        <time>2009-01-20T13:28:07Z</time>
      </trkpt>
      <trkpt lat="44.40029" lon="2.53795">
        <ele>594</ele>
        <time>2009-01-20T13:28:17Z</time>
      </trkpt>
      <trkpt lat="44.40036" lon="2.53805">
        <ele>581</ele>
        <time>2009-01-20T13:28:28Z</time>
      </trkpt>
      <trkpt lat="44.40044" lon="2.53811">
        <ele>581</ele>
        <time>2009-01-20T13:28:37Z</time>
      </trkpt>
      <trkpt lat="44.40052" lon="2.53818">
        <ele>574</ele>
        <time>2009-01-20T13:28:51Z</time>
      </trkpt>
      <trkpt lat="44.40062" lon="2.53823">
        <ele>581</ele>
        <time>2009-01-20T13:29:00Z</time>
      </trkpt>
      <trkpt lat="44.4007" lon="2.53826">
        <ele>581</ele>
        <time>2009-01-20T13:29:14Z</time>
      </trkpt>
      <trkpt lat="44.40078" lon="2.53833">
        <ele>581</ele>
        <time>2009-01-20T13:29:22Z</time>
      </trkpt>
      <trkpt lat="44.40087" lon="2.53841">
        <ele>581</ele>
        <time>2009-01-20T13:29:31Z</time>
      </trkpt>
      <trkpt lat="44.40096" lon="2.53848">
        <ele>581</ele>
        <time>2009-01-20T13:29:39Z</time>
      </trkpt>
      <trkpt lat="44.40103" lon="2.53856">
        <ele>581</ele>
        <time>2009-01-20T13:29:47Z</time>
      </trkpt>
      <trkpt lat="44.40112" lon="2.53861">
        <ele>581</ele>
        <time>2009-01-20T13:29:55Z</time>
      </trkpt>
      <trkpt lat="44.40121" lon="2.53866">
        <ele>581</ele>
        <time>2009-01-20T13:30:06Z</time>
      </trkpt>
      <trkpt lat="44.40129" lon="2.53874">
        <ele>581</ele>
        <time>2009-01-20T13:30:17Z</time>
      </trkpt>
      <trkpt lat="44.40136" lon="2.5388">
        <ele>581</ele>
        <time>2009-01-20T13:30:26Z</time>
      </trkpt>
      <trkpt lat="44.40144" lon="2.53887">
        <ele>581</ele>
        <time>2009-01-20T13:30:32Z</time>
      </trkpt>
      <trkpt lat="44.40152" lon="2.53894">
        <ele>581</ele>
        <time>2009-01-20T13:30:40Z</time>
      </trkpt>
      <trkpt lat="44.40159" lon="2.53901">
        <ele>581</ele>
        <time>2009-01-20T13:30:47Z</time>
      </trkpt>
      <trkpt lat="44.40167" lon="2.53907">
        <ele>581</ele>
        <time>2009-01-20T13:30:55Z</time>
      </trkpt>
      <trkpt lat="44.40174" lon="2.53914">
        <ele>581</ele>
        <time>2009-01-20T13:31:02Z</time>
      </trkpt>
      <trkpt lat="44.40182" lon="2.53922">
        <ele>581</ele>
        <time>2009-01-20T13:31:11Z</time>
      </trkpt>
      <trkpt lat="44.4019" lon="2.53928">
        <ele>581</ele>
        <time>2009-01-20T13:31:23Z</time>
      </trkpt>
      <trkpt lat="44.40199" lon="2.5393">
        <ele>581</ele>
        <time>2009-01-20T13:31:40Z</time>
      </trkpt>
      <trkpt lat="44.40208" lon="2.53938">
        <ele>581</ele>
        <time>2009-01-20T13:31:49Z</time>
      </trkpt>
      <trkpt lat="44.40215" lon="2.53944">
        <ele>581</ele>
        <time>2009-01-20T13:31:58Z</time>
      </trkpt>
      <trkpt lat="44.40223" lon="2.5395">
        <ele>581</ele>
        <time>2009-01-20T13:32:06Z</time>
      </trkpt>
      <trkpt lat="44.4023" lon="2.53957">
        <ele>573</ele>
        <time>2009-01-20T13:32:12Z</time>
      </trkpt>
      <trkpt lat="44.40238" lon="2.53966">
        <ele>573</ele>
        <time>2009-01-20T13:32:20Z</time>
      </trkpt>
      <trkpt lat="44.40247" lon="2.53973">
        <ele>573</ele>
        <time>2009-01-20T13:32:28Z</time>
      </trkpt>
      <trkpt lat="44.40255" lon="2.5398">
        <ele>573</ele>
        <time>2009-01-20T13:32:36Z</time>
      </trkpt>
      <trkpt lat="44.40263" lon="2.53984">
        <ele>573</ele>
        <time>2009-01-20T13:32:49Z</time>
      </trkpt>
      <trkpt lat="44.40272" lon="2.53991">
        <ele>573</ele>
        <time>2009-01-20T13:32:59Z</time>
      </trkpt>
      <trkpt lat="44.40281" lon="2.53998">
        <ele>573</ele>
        <time>2009-01-20T13:33:08Z</time>
      </trkpt>
      <trkpt lat="44.40289" lon="2.54003">
        <ele>573</ele>
        <time>2009-01-20T13:33:17Z</time>
      </trkpt>
      <trkpt lat="44.40298" lon="2.54009">
        <ele>578</ele>
        <time>2009-01-20T13:33:25Z</time>
      </trkpt>
      <trkpt lat="44.40307" lon="2.54016">
        <ele>578</ele>
        <time>2009-01-20T13:33:33Z</time>
      </trkpt>
      <trkpt lat="44.40314" lon="2.54024">
        <ele>578</ele>
        <time>2009-01-20T13:33:41Z</time>
      </trkpt>
      <trkpt lat="44.40321" lon="2.54032">
        <ele>578</ele>
        <time>2009-01-20T13:33:49Z</time>
      </trkpt>
      <trkpt lat="44.4033" lon="2.54037">
        <ele>578</ele>
        <time>2009-01-20T13:34:01Z</time>
      </trkpt>
      <trkpt lat="44.40338" lon="2.54041">
        <ele>584</ele>
        <time>2009-01-20T13:34:09Z</time>
      </trkpt>
      <trkpt lat="44.40347" lon="2.54046">
        <ele>584</ele>
        <time>2009-01-20T13:34:17Z</time>
      </trkpt>
      <trkpt lat="44.40355" lon="2.54053">
        <ele>584</ele>
        <time>2009-01-20T13:34:22Z</time>
      </trkpt>
      <trkpt lat="44.40362" lon="2.54062">
        <ele>579</ele>
        <time>2009-01-20T13:34:29Z</time>
      </trkpt>
      <trkpt lat="44.40369" lon="2.54069">
        <ele>579</ele>
        <time>2009-01-20T13:34:38Z</time>
      </trkpt>
      <trkpt lat="44.40377" lon="2.54076">
        <ele>579</ele>
        <time>2009-01-20T13:34:48Z</time>
      </trkpt>
      <trkpt lat="44.40385" lon="2.54083">
        <ele>579</ele>
        <time>2009-01-20T13:35:00Z</time>
      </trkpt>
      <trkpt lat="44.40394" lon="2.5409">
        <ele>579</ele>
        <time>2009-01-20T13:35:07Z</time>
      </trkpt>
      <trkpt lat="44.40403" lon="2.54095">
        <ele>579</ele>
        <time>2009-01-20T13:35:15Z</time>
      </trkpt>
      <trkpt lat="44.40411" lon="2.54103">
        <ele>579</ele>
        <time>2009-01-20T13:35:24Z</time>
      </trkpt>
      <trkpt lat="44.40418" lon="2.54111">
        <ele>579</ele>
        <time>2009-01-20T13:35:33Z</time>
      </trkpt>
      <trkpt lat="44.40426" lon="2.54117">
        <ele>579</ele>
        <time>2009-01-20T13:35:40Z</time>
      </trkpt>
      <trkpt lat="44.40434" lon="2.54124">
        <ele>579</ele>
        <time>2009-01-20T13:35:49Z</time>
      </trkpt>
      <trkpt lat="44.40443" lon="2.54128">
        <ele>579</ele>
        <time>2009-01-20T13:35:58Z</time>
      </trkpt>
      <trkpt lat="44.40451" lon="2.54134">
        <ele>579</ele>
        <time>2009-01-20T13:36:05Z</time>
      </trkpt>
      <trkpt lat="44.4046" lon="2.54139">
        <ele>579</ele>
        <time>2009-01-20T13:36:15Z</time>
      </trkpt>
      <trkpt lat="44.40467" lon="2.54146">
        <ele>579</ele>
        <time>2009-01-20T13:36:22Z</time>
      </trkpt>
      <trkpt lat="44.40475" lon="2.54153">
        <ele>579</ele>
        <time>2009-01-20T13:36:32Z</time>
      </trkpt>
      <trkpt lat="44.40479" lon="2.54166">
        <ele>579</ele>
        <time>2009-01-20T13:36:50Z</time>
      </trkpt>
      <trkpt lat="44.40483" lon="2.54177">
        <ele>579</ele>
        <time>2009-01-20T13:36:57Z</time>
      </trkpt>
      <trkpt lat="44.40479" lon="2.54189">
        <ele>573</ele>
        <time>2009-01-20T13:37:09Z</time>
      </trkpt>
      <trkpt lat="44.40475" lon="2.54201">
        <ele>573</ele>
        <time>2009-01-20T13:37:17Z</time>
      </trkpt>
      <trkpt lat="44.40469" lon="2.54212">
        <ele>573</ele>
        <time>2009-01-20T13:37:24Z</time>
      </trkpt>
      <trkpt lat="44.40466" lon="2.54223">
        <ele>579</ele>
        <time>2009-01-20T13:37:34Z</time>
      </trkpt>
      <trkpt lat="44.40465" lon="2.54238">
        <ele>579</ele>
        <time>2009-01-20T13:37:43Z</time>
      </trkpt>
      <trkpt lat="44.40461" lon="2.5425">
        <ele>579</ele>
        <time>2009-01-20T13:37:49Z</time>
      </trkpt>
      <trkpt lat="44.40458" lon="2.54262">
        <ele>572</ele>
        <time>2009-01-20T13:37:56Z</time>
      </trkpt>
      <trkpt lat="44.40453" lon="2.54274">
        <ele>572</ele>
        <time>2009-01-20T13:38:06Z</time>
      </trkpt>
      <trkpt lat="44.40452" lon="2.54287">
        <ele>572</ele>
        <time>2009-01-20T13:38:14Z</time>
      </trkpt>
      <trkpt lat="44.4045" lon="2.54299">
        <ele>572</ele>
        <time>2009-01-20T13:38:21Z</time>
      </trkpt>
      <trkpt lat="44.40451" lon="2.54311">
        <ele>572</ele>
        <time>2009-01-20T13:38:29Z</time>
      </trkpt>
      <trkpt lat="44.40452" lon="2.54324">
        <ele>572</ele>
        <time>2009-01-20T13:38:35Z</time>
      </trkpt>
      <trkpt lat="44.40449" lon="2.54336">
        <ele>572</ele>
        <time>2009-01-20T13:38:43Z</time>
      </trkpt>
      <trkpt lat="44.40447" lon="2.54347">
        <ele>572</ele>
        <time>2009-01-20T13:38:51Z</time>
      </trkpt>
      <trkpt lat="44.40443" lon="2.54359">
        <ele>572</ele>
        <time>2009-01-20T13:39:00Z</time>
      </trkpt>
      <trkpt lat="44.40443" lon="2.54371">
        <ele>572</ele>
        <time>2009-01-20T13:39:08Z</time>
      </trkpt>
      <trkpt lat="44.40442" lon="2.54384">
        <ele>572</ele>
        <time>2009-01-20T13:39:17Z</time>
      </trkpt>
      <trkpt lat="44.40442" lon="2.54397">
        <ele>572</ele>
        <time>2009-01-20T13:39:26Z</time>
      </trkpt>
      <trkpt lat="44.4044" lon="2.5441">
        <ele>572</ele>
        <time>2009-01-20T13:39:36Z</time>
      </trkpt>
      <trkpt lat="44.4044" lon="2.54424">
        <ele>572</ele>
        <time>2009-01-20T13:39:47Z</time>
      </trkpt>
      <trkpt lat="44.40439" lon="2.54437">
        <ele>572</ele>
        <time>2009-01-20T13:39:54Z</time>
      </trkpt>
      <trkpt lat="44.40438" lon="2.5445">
        <ele>572</ele>
        <time>2009-01-20T13:40:05Z</time>
      </trkpt>
      <trkpt lat="44.40446" lon="2.54454">
        <ele>572</ele>
        <time>2009-01-20T13:40:19Z</time>
      </trkpt>
      <trkpt lat="44.40455" lon="2.54454">
        <ele>577</ele>
        <time>2009-01-20T13:40:29Z</time>
      </trkpt>
      <trkpt lat="44.40463" lon="2.54448">
        <ele>577</ele>
        <time>2009-01-20T13:40:40Z</time>
      </trkpt>
      <trkpt lat="44.40472" lon="2.54445">
        <ele>577</ele>
        <time>2009-01-20T13:40:48Z</time>
      </trkpt>
      <trkpt lat="44.40482" lon="2.54443">
        <ele>577</ele>
        <time>2009-01-20T13:40:57Z</time>
      </trkpt>
      <trkpt lat="44.40491" lon="2.54443">
        <ele>572</ele>
        <time>2009-01-20T13:41:04Z</time>
      </trkpt>
      <trkpt lat="44.40501" lon="2.54443">
        <ele>572</ele>
        <time>2009-01-20T13:41:12Z</time>
      </trkpt>
      <trkpt lat="44.40511" lon="2.54441">
        <ele>572</ele>
        <time>2009-01-20T13:41:22Z</time>
      </trkpt>
      <trkpt lat="44.40521" lon="2.54439">
        <ele>572</ele>
        <time>2009-01-20T13:41:31Z</time>
      </trkpt>
      <trkpt lat="44.40529" lon="2.54434">
        <ele>572</ele>
        <time>2009-01-20T13:41:41Z</time>
      </trkpt>
      <trkpt lat="44.40537" lon="2.54429">
        <ele>572</ele>
        <time>2009-01-20T13:41:49Z</time>
      </trkpt>
      <trkpt lat="44.40546" lon="2.54424">
        <ele>572</ele>
        <time>2009-01-20T13:41:58Z</time>
      </trkpt>
      <trkpt lat="44.40554" lon="2.54417">
        <ele>572</ele>
        <time>2009-01-20T13:42:09Z</time>
      </trkpt>
      <trkpt lat="44.40561" lon="2.54409">
        <ele>578</ele>
        <time>2009-01-20T13:42:17Z</time>
      </trkpt>
      <trkpt lat="44.40568" lon="2.54399">
        <ele>578</ele>
        <time>2009-01-20T13:42:26Z</time>
      </trkpt>
      <trkpt lat="44.40574" lon="2.54388">
        <ele>578</ele>
        <time>2009-01-20T13:42:36Z</time>
      </trkpt>
      <trkpt lat="44.40579" lon="2.54377">
        <ele>578</ele>
        <time>2009-01-20T13:42:46Z</time>
      </trkpt>
      <trkpt lat="44.40583" lon="2.54365">
        <ele>584</ele>
        <time>2009-01-20T13:42:54Z</time>
      </trkpt>
      <trkpt lat="44.4059" lon="2.54356">
        <ele>584</ele>
        <time>2009-01-20T13:43:03Z</time>
      </trkpt>
      <trkpt lat="44.40597" lon="2.54347">
        <ele>578</ele>
        <time>2009-01-20T13:43:11Z</time>
      </trkpt>
      <trkpt lat="44.40605" lon="2.54339">
        <ele>578</ele>
        <time>2009-01-20T13:43:22Z</time>
      </trkpt>
      <trkpt lat="44.40614" lon="2.54334">
        <ele>578</ele>
        <time>2009-01-20T13:43:30Z</time>
      </trkpt>
      <trkpt lat="44.40622" lon="2.54328">
        <ele>578</ele>
        <time>2009-01-20T13:43:37Z</time>
      </trkpt>
      <trkpt lat="44.40631" lon="2.54329">
        <ele>578</ele>
        <time>2009-01-20T13:43:46Z</time>
      </trkpt>
      <trkpt lat="44.40641" lon="2.54328">
        <ele>578</ele>
        <time>2009-01-20T13:43:55Z</time>
      </trkpt>
      <trkpt lat="44.4065" lon="2.54321">
        <ele>578</ele>
        <time>2009-01-20T13:44:04Z</time>
      </trkpt>
      <trkpt lat="44.40659" lon="2.54321">
        <ele>578</ele>
        <time>2009-01-20T13:44:11Z</time>
      </trkpt>
      <trkpt lat="44.40668" lon="2.54321">
        <ele>578</ele>
        <time>2009-01-20T13:44:19Z</time>
      </trkpt>
      <trkpt lat="44.40677" lon="2.54321">
        <ele>578</ele>
        <time>2009-01-20T13:44:29Z</time>
      </trkpt>
      <trkpt lat="44.40687" lon="2.54323">
        <ele>573</ele>
        <time>2009-01-20T13:44:37Z</time>
      </trkpt>
      <trkpt lat="44.40696" lon="2.54325">
        <ele>573</ele>
        <time>2009-01-20T13:44:45Z</time>
      </trkpt>
      <trkpt lat="44.40706" lon="2.54325">
        <ele>573</ele>
        <time>2009-01-20T13:44:54Z</time>
      </trkpt>
      <trkpt lat="44.40715" lon="2.54322">
        <ele>573</ele>
        <time>2009-01-20T13:45:03Z</time>
      </trkpt>
      <trkpt lat="44.40724" lon="2.5432">
        <ele>573</ele>
        <time>2009-01-20T13:45:12Z</time>
      </trkpt>
      <trkpt lat="44.40734" lon="2.5432">
        <ele>573</ele>
        <time>2009-01-20T13:45:20Z</time>
      </trkpt>
      <trkpt lat="44.40744" lon="2.54321">
        <ele>573</ele>
        <time>2009-01-20T13:45:31Z</time>
      </trkpt>
      <trkpt lat="44.40753" lon="2.54322">
        <ele>573</ele>
        <time>2009-01-20T13:45:49Z</time>
      </trkpt>
      <trkpt lat="44.4076" lon="2.54329">
        <ele>579</ele>
        <time>2009-01-20T13:45:59Z</time>
      </trkpt>
      <trkpt lat="44.40767" lon="2.54338">
        <ele>579</ele>
        <time>2009-01-20T13:46:08Z</time>
      </trkpt>
      <trkpt lat="44.40771" lon="2.5435">
        <ele>579</ele>
        <time>2009-01-20T13:46:18Z</time>
      </trkpt>
      <trkpt lat="44.40773" lon="2.54362">
        <ele>579</ele>
        <time>2009-01-20T13:46:26Z</time>
      </trkpt>
      <trkpt lat="44.40776" lon="2.54374">
        <ele>579</ele>
        <time>2009-01-20T13:46:37Z</time>
      </trkpt>
      <trkpt lat="44.40779" lon="2.54387">
        <ele>579</ele>
        <time>2009-01-20T13:46:45Z</time>
      </trkpt>
      <trkpt lat="44.40782" lon="2.54398">
        <ele>585</ele>
        <time>2009-01-20T13:46:55Z</time>
      </trkpt>
      <trkpt lat="44.40785" lon="2.5441">
        <ele>585</ele>
        <time>2009-01-20T13:47:04Z</time>
      </trkpt>
      <trkpt lat="44.40788" lon="2.54422">
        <ele>585</ele>
        <time>2009-01-20T13:47:11Z</time>
      </trkpt>
      <trkpt lat="44.40791" lon="2.54433">
        <ele>585</ele>
        <time>2009-01-20T13:47:21Z</time>
      </trkpt>
      <trkpt lat="44.40794" lon="2.54446">
        <ele>585</ele>
        <time>2009-01-20T13:47:26Z</time>
      </trkpt>
      <trkpt lat="44.40797" lon="2.54458">
        <ele>585</ele>
        <time>2009-01-20T13:47:34Z</time>
      </trkpt>
      <trkpt lat="44.408" lon="2.54469">
        <ele>585</ele>
        <time>2009-01-20T13:47:43Z</time>
      </trkpt>
      <trkpt lat="44.408" lon="2.54482">
        <ele>585</ele>
        <time>2009-01-20T13:47:55Z</time>
      </trkpt>
      <trkpt lat="44.40803" lon="2.54494">
        <ele>585</ele>
        <time>2009-01-20T13:48:03Z</time>
      </trkpt>
      <trkpt lat="44.40807" lon="2.54505">
        <ele>585</ele>
        <time>2009-01-20T13:48:10Z</time>
      </trkpt>
      <trkpt lat="44.40806" lon="2.54518">
        <ele>585</ele>
        <time>2009-01-20T13:48:22Z</time>
      </trkpt>
      <trkpt lat="44.40808" lon="2.5453">
        <ele>585</ele>
        <time>2009-01-20T13:48:33Z</time>
      </trkpt>
      <trkpt lat="44.40812" lon="2.54541">
        <ele>585</ele>
        <time>2009-01-20T13:48:40Z</time>
      </trkpt>
      <trkpt lat="44.40815" lon="2.54553">
        <ele>585</ele>
        <time>2009-01-20T13:48:48Z</time>
      </trkpt>
      <trkpt lat="44.40818" lon="2.54565">
        <ele>585</ele>
        <time>2009-01-20T13:48:57Z</time>
      </trkpt>
      <trkpt lat="44.40821" lon="2.54576">
        <ele>585</ele>
        <time>2009-01-20T13:49:07Z</time>
      </trkpt>
      <trkpt lat="44.40827" lon="2.54588">
        <ele>585</ele>
        <time>2009-01-20T13:49:16Z</time>
      </trkpt>
      <trkpt lat="44.40829" lon="2.546">
        <ele>585</ele>
        <time>2009-01-20T13:49:24Z</time>
      </trkpt>
      <trkpt lat="44.40834" lon="2.54612">
        <ele>590</ele>
        <time>2009-01-20T13:49:35Z</time>
      </trkpt>
      <trkpt lat="44.40834" lon="2.54625">
        <ele>590</ele>
        <time>2009-01-20T13:49:47Z</time>
      </trkpt>
      <trkpt lat="44.40838" lon="2.54637">
        <ele>590</ele>
        <time>2009-01-20T13:49:53Z</time>
      </trkpt>
      <trkpt lat="44.40843" lon="2.54649">
        <ele>590</ele>
        <time>2009-01-20T13:50:01Z</time>
      </trkpt>
      <trkpt lat="44.40845" lon="2.54662">
        <ele>590</ele>
        <time>2009-01-20T13:50:11Z</time>
      </trkpt>
      <trkpt lat="44.40848" lon="2.54674">
        <ele>590</ele>
        <time>2009-01-20T13:50:19Z</time>
      </trkpt>
      <trkpt lat="44.40852" lon="2.54687">
        <ele>590</ele>
        <time>2009-01-20T13:50:27Z</time>
      </trkpt>
      <trkpt lat="44.40857" lon="2.54698">
        <ele>590</ele>
        <time>2009-01-20T13:50:34Z</time>
      </trkpt>
      <trkpt lat="44.40859" lon="2.5471">
        <ele>590</ele>
        <time>2009-01-20T13:50:43Z</time>
      </trkpt>
      <trkpt lat="44.40864" lon="2.54723">
        <ele>590</ele>
        <time>2009-01-20T13:50:53Z</time>
      </trkpt>
      <trkpt lat="44.40872" lon="2.5473">
        <ele>590</ele>
        <time>2009-01-20T13:51:06Z</time>
      </trkpt>
      <trkpt lat="44.40881" lon="2.54734">
        <ele>590</ele>
        <time>2009-01-20T13:51:13Z</time>
      </trkpt>
      <trkpt lat="44.4089" lon="2.54734">
        <ele>590</ele>
        <time>2009-01-20T13:51:22Z</time>
      </trkpt>
      <trkpt lat="44.40899" lon="2.54737">
        <ele>590</ele>
        <time>2009-01-20T13:51:31Z</time>
      </trkpt>
      <trkpt lat="44.40909" lon="2.54738">
        <ele>590</ele>
        <time>2009-01-20T13:51:40Z</time>
      </trkpt>
      <trkpt lat="44.40917" lon="2.54742">
        <ele>590</ele>
        <time>2009-01-20T13:51:48Z</time>
      </trkpt>
      <trkpt lat="44.40926" lon="2.54744">
        <ele>590</ele>
        <time>2009-01-20T13:51:56Z</time>
      </trkpt>
      <trkpt lat="44.40935" lon="2.54746">
        <ele>590</ele>
        <time>2009-01-20T13:52:04Z</time>
      </trkpt>
      <trkpt lat="44.40944" lon="2.54748">
        <ele>590</ele>
        <time>2009-01-20T13:52:12Z</time>
      </trkpt>
      <trkpt lat="44.40953" lon="2.54751">
        <ele>590</ele>
        <time>2009-01-20T13:52:21Z</time>
      </trkpt>
      <trkpt lat="44.40962" lon="2.54752">
        <ele>596</ele>
        <time>2009-01-20T13:52:31Z</time>
      </trkpt>
      <trkpt lat="44.40972" lon="2.54755">
        <ele>596</ele>
        <time>2009-01-20T13:52:40Z</time>
      </trkpt>
      <trkpt lat="44.4098" lon="2.54759">
        <ele>596</ele>
        <time>2009-01-20T13:52:48Z</time>
      </trkpt>
      <trkpt lat="44.40989" lon="2.54764">
        <ele>596</ele>
        <time>2009-01-20T13:52:56Z</time>
      </trkpt>
      <trkpt lat="44.40997" lon="2.5477">
        <ele>596</ele>
        <time>2009-01-20T13:53:13Z</time>
      </trkpt>
      <trkpt lat="44.41005" lon="2.54776">
        <ele>596</ele>
        <time>2009-01-20T13:53:24Z</time>
      </trkpt>
      <trkpt lat="44.41013" lon="2.5478">
        <ele>596</ele>
        <time>2009-01-20T13:53:31Z</time>
      </trkpt>
      <trkpt lat="44.41022" lon="2.54786">
        <ele>596</ele>
        <time>2009-01-20T13:53:39Z</time>
      </trkpt>
      <trkpt lat="44.41032" lon="2.5479">
        <ele>596</ele>
        <time>2009-01-20T13:53:47Z</time>
      </trkpt>
      <trkpt lat="44.41042" lon="2.54793">
        <ele>596</ele>
        <time>2009-01-20T13:53:54Z</time>
      </trkpt>
      <trkpt lat="44.41051" lon="2.54793">
        <ele>596</ele>
        <time>2009-01-20T13:54:01Z</time>
      </trkpt>
      <trkpt lat="44.4106" lon="2.54794">
        <ele>596</ele>
        <time>2009-01-20T13:54:10Z</time>
      </trkpt>
      <trkpt lat="44.41069" lon="2.54794">
        <ele>596</ele>
        <time>2009-01-20T13:54:19Z</time>
      </trkpt>
      <trkpt lat="44.41077" lon="2.54797">
        <ele>596</ele>
        <time>2009-01-20T13:54:27Z</time>
      </trkpt>
      <trkpt lat="44.41087" lon="2.54799">
        <ele>596</ele>
        <time>2009-01-20T13:54:35Z</time>
      </trkpt>
      <trkpt lat="44.41096" lon="2.54801">
        <ele>596</ele>
        <time>2009-01-20T13:54:43Z</time>
      </trkpt>
      <trkpt lat="44.41106" lon="2.54804">
        <ele>596</ele>
        <time>2009-01-20T13:54:51Z</time>
      </trkpt>
      <trkpt lat="44.41115" lon="2.54808">
        <ele>596</ele>
        <time>2009-01-20T13:54:58Z</time>
      </trkpt>
      <trkpt lat="44.41124" lon="2.54808">
        <ele>596</ele>
        <time>2009-01-20T13:55:06Z</time>
      </trkpt>
      <trkpt lat="44.41133" lon="2.54811">
        <ele>596</ele>
        <time>2009-01-20T13:55:14Z</time>
      </trkpt>
      <trkpt lat="44.41142" lon="2.5481">
        <ele>596</ele>
        <time>2009-01-20T13:55:22Z</time>
      </trkpt>
      <trkpt lat="44.41151" lon="2.54812">
        <ele>590</ele>
        <time>2009-01-20T13:56:12Z</time>
      </trkpt>
      <trkpt lat="44.4116" lon="2.54813">
        <ele>590</ele>
        <time>2009-01-20T13:56:22Z</time>
      </trkpt>
      <trkpt lat="44.4117" lon="2.54815">
        <ele>590</ele>
        <time>2009-01-20T13:56:31Z</time>
      </trkpt>
      <trkpt lat="44.41179" lon="2.54819">
        <ele>590</ele>
        <time>2009-01-20T13:56:39Z</time>
      </trkpt>
      <trkpt lat="44.41188" lon="2.54822">
        <ele>590</ele>
        <time>2009-01-20T13:56:48Z</time>
      </trkpt>
      <trkpt lat="44.41198" lon="2.54824">
        <ele>590</ele>
        <time>2009-01-20T13:56:57Z</time>
      </trkpt>
      <trkpt lat="44.41199" lon="2.54837">
        <ele>590</ele>
        <time>2009-01-20T13:57:27Z</time>
      </trkpt>
      <trkpt lat="44.41197" lon="2.5485">
        <ele>596</ele>
        <time>2009-01-20T13:57:39Z</time>
      </trkpt>
      <trkpt lat="44.41194" lon="2.54862">
        <ele>596</ele>
        <time>2009-01-20T13:57:47Z</time>
      </trkpt>
      <trkpt lat="44.41189" lon="2.54873">
        <ele>596</ele>
        <time>2009-01-20T13:57:55Z</time>
      </trkpt>
      <trkpt lat="44.41185" lon="2.54884">
        <ele>596</ele>
        <time>2009-01-20T13:58:04Z</time>
      </trkpt>
      <trkpt lat="44.4118" lon="2.54896">
        <ele>596</ele>
        <time>2009-01-20T13:58:15Z</time>
      </trkpt>
      <trkpt lat="44.41176" lon="2.54907">
        <ele>596</ele>
        <time>2009-01-20T13:58:23Z</time>
      </trkpt>
      <trkpt lat="44.4117" lon="2.54917">
        <ele>596</ele>
        <time>2009-01-20T13:58:29Z</time>
      </trkpt>
      <trkpt lat="44.41166" lon="2.54928">
        <ele>596</ele>
        <time>2009-01-20T13:58:37Z</time>
      </trkpt>
      <trkpt lat="44.41161" lon="2.54937">
        <ele>596</ele>
        <time>2009-01-20T13:58:44Z</time>
      </trkpt>
      <trkpt lat="44.41157" lon="2.54949">
        <ele>596</ele>
        <time>2009-01-20T13:58:52Z</time>
      </trkpt>
      <trkpt lat="44.41159" lon="2.54937">
        <ele>596</ele>
        <time>2009-01-20T13:59:24Z</time>
      </trkpt>
      <trkpt lat="44.41165" lon="2.54926">
        <ele>596</ele>
        <time>2009-01-20T13:59:33Z</time>
      </trkpt>
      <trkpt lat="44.41169" lon="2.54913">
        <ele>596</ele>
        <time>2009-01-20T13:59:42Z</time>
      </trkpt>
      <trkpt lat="44.41174" lon="2.54902">
        <ele>596</ele>
        <time>2009-01-20T13:59:50Z</time>
      </trkpt>
      <trkpt lat="44.41176" lon="2.54891">
        <ele>596</ele>
        <time>2009-01-20T13:59:58Z</time>
      </trkpt>
      <trkpt lat="44.41182" lon="2.5488">
        <ele>596</ele>
        <time>2009-01-20T14:00:07Z</time>
      </trkpt>
      <trkpt lat="44.41187" lon="2.54869">
        <ele>596</ele>
        <time>2009-01-20T14:00:14Z</time>
      </trkpt>
      <trkpt lat="44.41192" lon="2.54858">
        <ele>596</ele>
        <time>2009-01-20T14:00:22Z</time>
      </trkpt>
      <trkpt lat="44.41196" lon="2.54847">
        <ele>596</ele>
        <time>2009-01-20T14:00:29Z</time>
      </trkpt>
      <trkpt lat="44.41203" lon="2.54837">
        <ele>596</ele>
        <time>2009-01-20T14:00:38Z</time>
      </trkpt>
      <trkpt lat="44.41211" lon="2.54831">
        <ele>596</ele>
        <time>2009-01-20T14:00:46Z</time>
      </trkpt>
      <trkpt lat="44.41221" lon="2.54831">
        <ele>596</ele>
        <time>2009-01-20T14:00:54Z</time>
      </trkpt>
      <trkpt lat="44.4123" lon="2.54834">
        <ele>596</ele>
        <time>2009-01-20T14:01:02Z</time>
      </trkpt>
      <trkpt lat="44.41239" lon="2.54837">
        <ele>596</ele>
        <time>2009-01-20T14:01:10Z</time>
      </trkpt>
      <trkpt lat="44.41249" lon="2.54839">
        <ele>596</ele>
        <time>2009-01-20T14:01:19Z</time>
      </trkpt>
      <trkpt lat="44.41259" lon="2.54839">
        <ele>596</ele>
        <time>2009-01-20T14:01:28Z</time>
      </trkpt>
      <trkpt lat="44.41268" lon="2.5484">
        <ele>596</ele>
        <time>2009-01-20T14:01:36Z</time>
      </trkpt>
      <trkpt lat="44.41277" lon="2.54843">
        <ele>596</ele>
        <time>2009-01-20T14:01:44Z</time>
      </trkpt>
      <trkpt lat="44.41286" lon="2.54848">
        <ele>596</ele>
        <time>2009-01-20T14:01:53Z</time>
      </trkpt>
      <trkpt lat="44.41292" lon="2.54857">
        <ele>596</ele>
        <time>2009-01-20T14:02:02Z</time>
      </trkpt>
      <trkpt lat="44.41291" lon="2.54869">
        <ele>596</ele>
        <time>2009-01-20T14:02:12Z</time>
      </trkpt>
      <trkpt lat="44.4129" lon="2.54882">
        <ele>596</ele>
        <time>2009-01-20T14:02:20Z</time>
      </trkpt>
      <trkpt lat="44.4129" lon="2.54895">
        <ele>596</ele>
        <time>2009-01-20T14:02:29Z</time>
      </trkpt>
      <trkpt lat="44.41289" lon="2.54909">
        <ele>596</ele>
        <time>2009-01-20T14:02:38Z</time>
      </trkpt>
      <trkpt lat="44.4129" lon="2.54921">
        <ele>596</ele>
        <time>2009-01-20T14:02:47Z</time>
      </trkpt>
      <trkpt lat="44.41288" lon="2.54934">
        <ele>596</ele>
        <time>2009-01-20T14:02:55Z</time>
      </trkpt>
      <trkpt lat="44.41286" lon="2.54946">
        <ele>596</ele>
        <time>2009-01-20T14:03:02Z</time>
      </trkpt>
      <trkpt lat="44.41284" lon="2.54959">
        <ele>596</ele>
        <time>2009-01-20T14:03:10Z</time>
      </trkpt>
      <trkpt lat="44.41282" lon="2.54972">
        <ele>596</ele>
        <time>2009-01-20T14:03:17Z</time>
      </trkpt>
      <trkpt lat="44.4128" lon="2.54983">
        <ele>596</ele>
        <time>2009-01-20T14:03:25Z</time>
      </trkpt>
      <trkpt lat="44.41278" lon="2.54996">
        <ele>596</ele>
        <time>2009-01-20T14:03:33Z</time>
      </trkpt>
      <trkpt lat="44.41277" lon="2.55008">
        <ele>596</ele>
        <time>2009-01-20T14:03:40Z</time>
      </trkpt>
      <trkpt lat="44.41274" lon="2.55022">
        <ele>596</ele>
        <time>2009-01-20T14:03:49Z</time>
      </trkpt>
      <trkpt lat="44.41272" lon="2.55034">
        <ele>596</ele>
        <time>2009-01-20T14:03:57Z</time>
      </trkpt>
      <trkpt lat="44.41272" lon="2.55048">
        <ele>596</ele>
        <time>2009-01-20T14:04:04Z</time>
      </trkpt>
      <trkpt lat="44.4127" lon="2.55061">
        <ele>596</ele>
        <time>2009-01-20T14:04:12Z</time>
      </trkpt>
      <trkpt lat="44.41267" lon="2.55074">
        <ele>596</ele>
        <time>2009-01-20T14:04:20Z</time>
      </trkpt>
      <trkpt lat="44.41266" lon="2.55087">
        <ele>596</ele>
        <time>2009-01-20T14:04:27Z</time>
      </trkpt>
      <trkpt lat="44.41264" lon="2.551">
        <ele>596</ele>
        <time>2009-01-20T14:04:36Z</time>
      </trkpt>
      <trkpt lat="44.41262" lon="2.55113">
        <ele>596</ele>
        <time>2009-01-20T14:04:44Z</time>
      </trkpt>
      <trkpt lat="44.41259" lon="2.55125">
        <ele>596</ele>
        <time>2009-01-20T14:04:54Z</time>
      </trkpt>
      <trkpt lat="44.41253" lon="2.55135">
        <ele>596</ele>
        <time>2009-01-20T14:05:06Z</time>
      </trkpt>
      <trkpt lat="44.41246" lon="2.55142">
        <ele>596</ele>
        <time>2009-01-20T14:05:16Z</time>
      </trkpt>
      <trkpt lat="44.41239" lon="2.5515">
        <ele>604</ele>
        <time>2009-01-20T14:05:28Z</time>
      </trkpt>
      <trkpt lat="44.41232" lon="2.55159">
        <ele>604</ele>
        <time>2009-01-20T14:05:38Z</time>
      </trkpt>
      <trkpt lat="44.41225" lon="2.55167">
        <ele>604</ele>
        <time>2009-01-20T14:05:46Z</time>
      </trkpt>
      <trkpt lat="44.41217" lon="2.55175">
        <ele>604</ele>
        <time>2009-01-20T14:05:54Z</time>
      </trkpt>
      <trkpt lat="44.4121" lon="2.55184">
        <ele>604</ele>
        <time>2009-01-20T14:06:03Z</time>
      </trkpt>
      <trkpt lat="44.41203" lon="2.55193">
        <ele>604</ele>
        <time>2009-01-20T14:06:12Z</time>
      </trkpt>
      <trkpt lat="44.41196" lon="2.55201">
        <ele>604</ele>
        <time>2009-01-20T14:06:19Z</time>
      </trkpt>
      <trkpt lat="44.41189" lon="2.5521">
        <ele>604</ele>
        <time>2009-01-20T14:06:28Z</time>
      </trkpt>
      <trkpt lat="44.41183" lon="2.55219">
        <ele>604</ele>
        <time>2009-01-20T14:06:37Z</time>
      </trkpt>
      <trkpt lat="44.41176" lon="2.55228">
        <ele>604</ele>
        <time>2009-01-20T14:06:46Z</time>
      </trkpt>
      <trkpt lat="44.4117" lon="2.55237">
        <ele>604</ele>
        <time>2009-01-20T14:06:54Z</time>
      </trkpt>
      <trkpt lat="44.41163" lon="2.55246">
        <ele>604</ele>
        <time>2009-01-20T14:07:01Z</time>
      </trkpt>
      <trkpt lat="44.41157" lon="2.55255">
        <ele>604</ele>
        <time>2009-01-20T14:07:08Z</time>
      </trkpt>
      <trkpt lat="44.4115" lon="2.55264">
        <ele>604</ele>
        <time>2009-01-20T14:07:15Z</time>
      </trkpt>
      <trkpt lat="44.41145" lon="2.55274">
        <ele>604</ele>
        <time>2009-01-20T14:07:23Z</time>
      </trkpt>
      <trkpt lat="44.41138" lon="2.55283">
        <ele>604</ele>
        <time>2009-01-20T14:07:32Z</time>
      </trkpt>
      <trkpt lat="44.41132" lon="2.55293">
        <ele>604</ele>
        <time>2009-01-20T14:07:41Z</time>
      </trkpt>
      <trkpt lat="44.41125" lon="2.55304">
        <ele>604</ele>
        <time>2009-01-20T14:07:51Z</time>
      </trkpt>
      <trkpt lat="44.41119" lon="2.55313">
        <ele>604</ele>
        <time>2009-01-20T14:07:59Z</time>
      </trkpt>
      <trkpt lat="44.41111" lon="2.55322">
        <ele>604</ele>
        <time>2009-01-20T14:08:08Z</time>
      </trkpt>
      <trkpt lat="44.41105" lon="2.55332">
        <ele>604</ele>
        <time>2009-01-20T14:08:17Z</time>
      </trkpt>
      <trkpt lat="44.41101" lon="2.55343">
        <ele>604</ele>
        <time>2009-01-20T14:08:29Z</time>
      </trkpt>
      <trkpt lat="44.41095" lon="2.55352">
        <ele>604</ele>
        <time>2009-01-20T14:08:38Z</time>
      </trkpt>
      <trkpt lat="44.41089" lon="2.55361">
        <ele>604</ele>
        <time>2009-01-20T14:08:46Z</time>
      </trkpt>
      <trkpt lat="44.41082" lon="2.5537">
        <ele>604</ele>
        <time>2009-01-20T14:08:56Z</time>
      </trkpt>
      <trkpt lat="44.41075" lon="2.5538">
        <ele>604</ele>
        <time>2009-01-20T14:09:03Z</time>
      </trkpt>
      <trkpt lat="44.41068" lon="2.55391">
        <ele>604</ele>
        <time>2009-01-20T14:09:11Z</time>
      </trkpt>
      <trkpt lat="44.41062" lon="2.55401">
        <ele>604</ele>
        <time>2009-01-20T14:09:20Z</time>
      </trkpt>
      <trkpt lat="44.41056" lon="2.55411">
        <ele>604</ele>
        <time>2009-01-20T14:09:29Z</time>
      </trkpt>
      <trkpt lat="44.41051" lon="2.55421">
        <ele>604</ele>
        <time>2009-01-20T14:09:38Z</time>
      </trkpt>
      <trkpt lat="44.41044" lon="2.5543">
        <ele>604</ele>
        <time>2009-01-20T14:09:46Z</time>
      </trkpt>
      <trkpt lat="44.41038" lon="2.5544">
        <ele>604</ele>
        <time>2009-01-20T14:09:54Z</time>
      </trkpt>
      <trkpt lat="44.41029" lon="2.55449">
        <ele>604</ele>
        <time>2009-01-20T14:10:01Z</time>
      </trkpt>
      <trkpt lat="44.41022" lon="2.55457">
        <ele>597</ele>
        <time>2009-01-20T14:10:08Z</time>
      </trkpt>
      <trkpt lat="44.41015" lon="2.55464">
        <ele>597</ele>
        <time>2009-01-20T14:10:16Z</time>
      </trkpt>
      <trkpt lat="44.41008" lon="2.55472">
        <ele>597</ele>
        <time>2009-01-20T14:10:25Z</time>
      </trkpt>
      <trkpt lat="44.40998" lon="2.55479">
        <ele>597</ele>
        <time>2009-01-20T14:10:39Z</time>
      </trkpt>
      <trkpt lat="44.40993" lon="2.55491">
        <ele>592</ele>
        <time>2009-01-20T14:10:46Z</time>
      </trkpt>
      <trkpt lat="44.40986" lon="2.55499">
        <ele>592</ele>
        <time>2009-01-20T14:10:59Z</time>
      </trkpt>
      <trkpt lat="44.40986" lon="2.55511">
        <ele>592</ele>
        <time>2009-01-20T14:11:11Z</time>
      </trkpt>
      <trkpt lat="44.40991" lon="2.55521">
        <ele>592</ele>
        <time>2009-01-20T14:11:22Z</time>
      </trkpt>
      <trkpt lat="44.40999" lon="2.55529">
        <ele>592</ele>
        <time>2009-01-20T14:11:31Z</time>
      </trkpt>
      <trkpt lat="44.41005" lon="2.55538">
        <ele>592</ele>
        <time>2009-01-20T14:11:43Z</time>
      </trkpt>
      <trkpt lat="44.41007" lon="2.5555">
        <ele>592</ele>
        <time>2009-01-20T14:11:52Z</time>
      </trkpt>
      <trkpt lat="44.41009" lon="2.55564">
        <ele>592</ele>
        <time>2009-01-20T14:12:02Z</time>
      </trkpt>
      <trkpt lat="44.41009" lon="2.55577">
        <ele>592</ele>
        <time>2009-01-20T14:12:11Z</time>
      </trkpt>
      <trkpt lat="44.41011" lon="2.5559">
        <ele>592</ele>
        <time>2009-01-20T14:12:20Z</time>
      </trkpt>
      <trkpt lat="44.41013" lon="2.55602">
        <ele>592</ele>
        <time>2009-01-20T14:12:30Z</time>
      </trkpt>
      <trkpt lat="44.41017" lon="2.55614">
        <ele>592</ele>
        <time>2009-01-20T14:12:41Z</time>
      </trkpt>
      <trkpt lat="44.4102" lon="2.55626">
        <ele>592</ele>
        <time>2009-01-20T14:12:50Z</time>
      </trkpt>
      <trkpt lat="44.41023" lon="2.55638">
        <ele>592</ele>
        <time>2009-01-20T14:12:59Z</time>
      </trkpt>
      <trkpt lat="44.41025" lon="2.55651">
        <ele>592</ele>
        <time>2009-01-20T14:13:08Z</time>
      </trkpt>
      <trkpt lat="44.41027" lon="2.55663">
        <ele>592</ele>
        <time>2009-01-20T14:13:18Z</time>
      </trkpt>
      <trkpt lat="44.41029" lon="2.55676">
        <ele>592</ele>
        <time>2009-01-20T14:13:27Z</time>
      </trkpt>
      <trkpt lat="44.41031" lon="2.55689">
        <ele>592</ele>
        <time>2009-01-20T14:13:37Z</time>
      </trkpt>
      <trkpt lat="44.41033" lon="2.55701">
        <ele>592</ele>
        <time>2009-01-20T14:13:44Z</time>
      </trkpt>
      <trkpt lat="44.41035" lon="2.55714">
        <ele>592</ele>
        <time>2009-01-20T14:13:52Z</time>
      </trkpt>
      <trkpt lat="44.41037" lon="2.55727">
        <ele>592</ele>
        <time>2009-01-20T14:14:01Z</time>
      </trkpt>
      <trkpt lat="44.41039" lon="2.5574">
        <ele>592</ele>
        <time>2009-01-20T14:14:09Z</time>
      </trkpt>
      <trkpt lat="44.41042" lon="2.55753">
        <ele>592</ele>
        <time>2009-01-20T14:14:17Z</time>
      </trkpt>
      <trkpt lat="44.41042" lon="2.55766">
        <ele>592</ele>
        <time>2009-01-20T14:14:27Z</time>
      </trkpt>
      <trkpt lat="44.41043" lon="2.55778">
        <ele>592</ele>
        <time>2009-01-20T14:14:34Z</time>
      </trkpt>
      <trkpt lat="44.41044" lon="2.55792">
        <ele>592</ele>
        <time>2009-01-20T14:14:43Z</time>
      </trkpt>
      <trkpt lat="44.41049" lon="2.55803">
        <ele>592</ele>
        <time>2009-01-20T14:14:52Z</time>
      </trkpt>
      <trkpt lat="44.41052" lon="2.55815">
        <ele>592</ele>
        <time>2009-01-20T14:15:00Z</time>
      </trkpt>
      <trkpt lat="44.41054" lon="2.55828">
        <ele>592</ele>
        <time>2009-01-20T14:15:09Z</time>
      </trkpt>
      <trkpt lat="44.41055" lon="2.55841">
        <ele>592</ele>
        <time>2009-01-20T14:15:17Z</time>
      </trkpt>
      <trkpt lat="44.41056" lon="2.55855">
        <ele>592</ele>
        <time>2009-01-20T14:15:26Z</time>
      </trkpt>
      <trkpt lat="44.41056" lon="2.55867">
        <ele>592</ele>
        <time>2009-01-20T14:15:35Z</time>
      </trkpt>
      <trkpt lat="44.41056" lon="2.5588">
        <ele>592</ele>
        <time>2009-01-20T14:15:43Z</time>
      </trkpt>
      <trkpt lat="44.41056" lon="2.55893">
        <ele>592</ele>
        <time>2009-01-20T14:15:52Z</time>
      </trkpt>
      <trkpt lat="44.41056" lon="2.55906">
        <ele>592</ele>
        <time>2009-01-20T14:16:00Z</time>
      </trkpt>
      <trkpt lat="44.41056" lon="2.55918">
        <ele>592</ele>
        <time>2009-01-20T14:16:08Z</time>
      </trkpt>
      <trkpt lat="44.41055" lon="2.55932">
        <ele>592</ele>
        <time>2009-01-20T14:16:17Z</time>
      </trkpt>
      <trkpt lat="44.41055" lon="2.55945">
        <ele>592</ele>
        <time>2009-01-20T14:16:26Z</time>
      </trkpt>
      <trkpt lat="44.41052" lon="2.55957">
        <ele>592</ele>
        <time>2009-01-20T14:16:35Z</time>
      </trkpt>
      <trkpt lat="44.4105" lon="2.5597">
        <ele>592</ele>
        <time>2009-01-20T14:16:52Z</time>
      </trkpt>
      <trkpt lat="44.41049" lon="2.55984">
        <ele>592</ele>
        <time>2009-01-20T14:17:01Z</time>
      </trkpt>
      <trkpt lat="44.41047" lon="2.55997">
        <ele>592</ele>
        <time>2009-01-20T14:17:13Z</time>
      </trkpt>
      <trkpt lat="44.4105" lon="2.5601">
        <ele>600</ele>
        <time>2009-01-20T14:17:21Z</time>
      </trkpt>
      <trkpt lat="44.4105" lon="2.56023">
        <ele>600</ele>
        <time>2009-01-20T14:17:29Z</time>
      </trkpt>
      <trkpt lat="44.41049" lon="2.56037">
        <ele>600</ele>
        <time>2009-01-20T14:17:37Z</time>
      </trkpt>
      <trkpt lat="44.41049" lon="2.5605">
        <ele>600</ele>
        <time>2009-01-20T14:17:45Z</time>
      </trkpt>
      <trkpt lat="44.41048" lon="2.56062">
        <ele>600</ele>
        <time>2009-01-20T14:17:52Z</time>
      </trkpt>
      <trkpt lat="44.41046" lon="2.56076">
        <ele>600</ele>
        <time>2009-01-20T14:18:00Z</time>
      </trkpt>
      <trkpt lat="44.41046" lon="2.56089">
        <ele>600</ele>
        <time>2009-01-20T14:18:08Z</time>
      </trkpt>
      <trkpt lat="44.41045" lon="2.56103">
        <ele>600</ele>
        <time>2009-01-20T14:18:16Z</time>
      </trkpt>
      <trkpt lat="44.41044" lon="2.56116">
        <ele>600</ele>
        <time>2009-01-20T14:18:24Z</time>
      </trkpt>
      <trkpt lat="44.41043" lon="2.5613">
        <ele>600</ele>
        <time>2009-01-20T14:18:33Z</time>
      </trkpt>
      <trkpt lat="44.41041" lon="2.56143">
        <ele>600</ele>
        <time>2009-01-20T14:18:41Z</time>
      </trkpt>
      <trkpt lat="44.41039" lon="2.56156">
        <ele>600</ele>
        <time>2009-01-20T14:18:50Z</time>
      </trkpt>
      <trkpt lat="44.41038" lon="2.5617">
        <ele>600</ele>
        <time>2009-01-20T14:18:59Z</time>
      </trkpt>
      <trkpt lat="44.41037" lon="2.56183">
        <ele>600</ele>
        <time>2009-01-20T14:19:06Z</time>
      </trkpt>
      <trkpt lat="44.41035" lon="2.56195">
        <ele>600</ele>
        <time>2009-01-20T14:19:14Z</time>
      </trkpt>
      <trkpt lat="44.41034" lon="2.56208">
        <ele>600</ele>
        <time>2009-01-20T14:19:21Z</time>
      </trkpt>
      <trkpt lat="44.41031" lon="2.5622">
        <ele>600</ele>
        <time>2009-01-20T14:19:29Z</time>
      </trkpt>
      <trkpt lat="44.41024" lon="2.56228">
        <ele>600</ele>
        <time>2009-01-20T14:19:37Z</time>
      </trkpt>
      <trkpt lat="44.41016" lon="2.56233">
        <ele>600</ele>
        <time>2009-01-20T14:19:46Z</time>
      </trkpt>
      <trkpt lat="44.41007" lon="2.56236">
        <ele>600</ele>
        <time>2009-01-20T14:19:53Z</time>
      </trkpt>
      <trkpt lat="44.40998" lon="2.56236">
        <ele>600</ele>
        <time>2009-01-20T14:20:02Z</time>
      </trkpt>
      <trkpt lat="44.40989" lon="2.56237">
        <ele>600</ele>
        <time>2009-01-20T14:20:10Z</time>
      </trkpt>
      <trkpt lat="44.40979" lon="2.56237">
        <ele>600</ele>
        <time>2009-01-20T14:20:19Z</time>
      </trkpt>
      <trkpt lat="44.40969" lon="2.56237">
        <ele>600</ele>
        <time>2009-01-20T14:20:28Z</time>
      </trkpt>
      <trkpt lat="44.40959" lon="2.56238">
        <ele>600</ele>
        <time>2009-01-20T14:20:37Z</time>
      </trkpt>
      <trkpt lat="44.4095" lon="2.56239">
        <ele>600</ele>
        <time>2009-01-20T14:20:46Z</time>
      </trkpt>
      <trkpt lat="44.4094" lon="2.56239">
        <ele>600</ele>
        <time>2009-01-20T14:20:52Z</time>
      </trkpt>
      <trkpt lat="44.40931" lon="2.56239">
        <ele>600</ele>
        <time>2009-01-20T14:20:59Z</time>
      </trkpt>
      <trkpt lat="44.40922" lon="2.56236">
        <ele>600</ele>
        <time>2009-01-20T14:21:08Z</time>
      </trkpt>
      <trkpt lat="44.40915" lon="2.56229">
        <ele>600</ele>
        <time>2009-01-20T14:21:20Z</time>
      </trkpt>
      <trkpt lat="44.4091" lon="2.56219">
        <ele>600</ele>
        <time>2009-01-20T14:21:38Z</time>
      </trkpt>
      <trkpt lat="44.40905" lon="2.56208">
        <ele>600</ele>
        <time>2009-01-20T14:21:51Z</time>
      </trkpt>
      <trkpt lat="44.40899" lon="2.56198">
        <ele>600</ele>
        <time>2009-01-20T14:21:57Z</time>
      </trkpt>
      <trkpt lat="44.40895" lon="2.56187">
        <ele>600</ele>
        <time>2009-01-20T14:22:03Z</time>
      </trkpt>
      <trkpt lat="44.40892" lon="2.56175">
        <ele>600</ele>
        <time>2009-01-20T14:22:09Z</time>
      </trkpt>
      <trkpt lat="44.40887" lon="2.56164">
        <ele>600</ele>
        <time>2009-01-20T14:22:16Z</time>
      </trkpt>
      <trkpt lat="44.40882" lon="2.56154">
        <ele>594</ele>
        <time>2009-01-20T14:22:23Z</time>
      </trkpt>
      <trkpt lat="44.40877" lon="2.56144">
        <ele>594</ele>
        <time>2009-01-20T14:22:31Z</time>
      </trkpt>
      <trkpt lat="44.40872" lon="2.56133">
        <ele>594</ele>
        <time>2009-01-20T14:22:37Z</time>
      </trkpt>
      <trkpt lat="44.40865" lon="2.56124">
        <ele>594</ele>
        <time>2009-01-20T14:22:45Z</time>
      </trkpt>
      <trkpt lat="44.40859" lon="2.56113">
        <ele>594</ele>
        <time>2009-01-20T14:22:53Z</time>
      </trkpt>
      <trkpt lat="44.40853" lon="2.56104">
        <ele>594</ele>
        <time>2009-01-20T14:23:00Z</time>
      </trkpt>
      <trkpt lat="44.40847" lon="2.56094">
        <ele>594</ele>
        <time>2009-01-20T14:23:08Z</time>
      </trkpt>
      <trkpt lat="44.40842" lon="2.56083">
        <ele>603</ele>
        <time>2009-01-20T14:23:19Z</time>
      </trkpt>
      <trkpt lat="44.40832" lon="2.56082">
        <ele>603</ele>
        <time>2009-01-20T14:23:24Z</time>
      </trkpt>
      <trkpt lat="44.40825" lon="2.56072">
        <ele>603</ele>
        <time>2009-01-20T14:23:32Z</time>
      </trkpt>
      <trkpt lat="44.40817" lon="2.56065">
        <ele>603</ele>
        <time>2009-01-20T14:23:40Z</time>
      </trkpt>
      <trkpt lat="44.40812" lon="2.56053">
        <ele>603</ele>
        <time>2009-01-20T14:23:48Z</time>
      </trkpt>
      <trkpt lat="44.40807" lon="2.56043">
        <ele>603</ele>
        <time>2009-01-20T14:23:55Z</time>
      </trkpt>
      <trkpt lat="44.40801" lon="2.56033">
        <ele>603</ele>
        <time>2009-01-20T14:24:02Z</time>
      </trkpt>
      <trkpt lat="44.40796" lon="2.56023">
        <ele>603</ele>
        <time>2009-01-20T14:24:10Z</time>
      </trkpt>
      <trkpt lat="44.40787" lon="2.56016">
        <ele>603</ele>
        <time>2009-01-20T14:24:17Z</time>
      </trkpt>
      <trkpt lat="44.4078" lon="2.56008">
        <ele>603</ele>
        <time>2009-01-20T14:24:25Z</time>
      </trkpt>
      <trkpt lat="44.40772" lon="2.56001">
        <ele>597</ele>
        <time>2009-01-20T14:24:32Z</time>
      </trkpt>
      <trkpt lat="44.40765" lon="2.55991">
        <ele>597</ele>
        <time>2009-01-20T14:24:40Z</time>
      </trkpt>
      <trkpt lat="44.40757" lon="2.55982">
        <ele>597</ele>
        <time>2009-01-20T14:24:48Z</time>
      </trkpt>
      <trkpt lat="44.4075" lon="2.55975">
        <ele>597</ele>
        <time>2009-01-20T14:24:54Z</time>
      </trkpt>
      <trkpt lat="44.40744" lon="2.55965">
        <ele>590</ele>
        <time>2009-01-20T14:25:02Z</time>
      </trkpt>
      <trkpt lat="44.40736" lon="2.55958">
        <ele>590</ele>
        <time>2009-01-20T14:25:09Z</time>
      </trkpt>
      <trkpt lat="44.40729" lon="2.5595">
        <ele>590</ele>
        <time>2009-01-20T14:25:16Z</time>
      </trkpt>
      <trkpt lat="44.40722" lon="2.55942">
        <ele>590</ele>
        <time>2009-01-20T14:25:26Z</time>
      </trkpt>
      <trkpt lat="44.40714" lon="2.55935">
        <ele>590</ele>
        <time>2009-01-20T14:25:34Z</time>
      </trkpt>
      <trkpt lat="44.40707" lon="2.55927">
        <ele>596</ele>
        <time>2009-01-20T14:25:43Z</time>
      </trkpt>
      <trkpt lat="44.40698" lon="2.55921">
        <ele>596</ele>
        <time>2009-01-20T14:25:51Z</time>
      </trkpt>
      <trkpt lat="44.4069" lon="2.55915">
        <ele>596</ele>
        <time>2009-01-20T14:25:58Z</time>
      </trkpt>
      <trkpt lat="44.40685" lon="2.55905">
        <ele>596</ele>
        <time>2009-01-20T14:26:05Z</time>
      </trkpt>
      <trkpt lat="44.40678" lon="2.55896">
        <ele>591</ele>
        <time>2009-01-20T14:26:13Z</time>
      </trkpt>
      <trkpt lat="44.40673" lon="2.55885">
        <ele>591</ele>
        <time>2009-01-20T14:26:23Z</time>
      </trkpt>
      <trkpt lat="44.40666" lon="2.55878">
        <ele>591</ele>
        <time>2009-01-20T14:26:29Z</time>
      </trkpt>
      <trkpt lat="44.40658" lon="2.55869">
        <ele>591</ele>
        <time>2009-01-20T14:26:37Z</time>
      </trkpt>
      <trkpt lat="44.40651" lon="2.55861">
        <ele>591</ele>
        <time>2009-01-20T14:26:47Z</time>
      </trkpt>
      <trkpt lat="44.40644" lon="2.55851">
        <ele>591</ele>
        <time>2009-01-20T14:26:55Z</time>
      </trkpt>
      <trkpt lat="44.40637" lon="2.55842">
        <ele>591</ele>
        <time>2009-01-20T14:27:04Z</time>
      </trkpt>
      <trkpt lat="44.4063" lon="2.55832">
        <ele>591</ele>
        <time>2009-01-20T14:27:12Z</time>
      </trkpt>
      <trkpt lat="44.40623" lon="2.55825">
        <ele>591</ele>
        <time>2009-01-20T14:27:19Z</time>
      </trkpt>
      <trkpt lat="44.40616" lon="2.55817">
        <ele>591</ele>
        <time>2009-01-20T14:27:28Z</time>
      </trkpt>
      <trkpt lat="44.40608" lon="2.5581">
        <ele>591</ele>
        <time>2009-01-20T14:27:35Z</time>
      </trkpt>
      <trkpt lat="44.40601" lon="2.558">
        <ele>591</ele>
        <time>2009-01-20T14:27:42Z</time>
      </trkpt>
      <trkpt lat="44.40593" lon="2.55792">
        <ele>591</ele>
        <time>2009-01-20T14:27:49Z</time>
      </trkpt>
      <trkpt lat="44.40588" lon="2.55782">
        <ele>591</ele>
        <time>2009-01-20T14:27:58Z</time>
      </trkpt>
      <trkpt lat="44.40583" lon="2.55772">
        <ele>597</ele>
        <time>2009-01-20T14:28:11Z</time>
      </trkpt>
      <trkpt lat="44.40575" lon="2.55764">
        <ele>597</ele>
        <time>2009-01-20T14:28:18Z</time>
      </trkpt>
      <trkpt lat="44.40569" lon="2.55754">
        <ele>597</ele>
        <time>2009-01-20T14:28:25Z</time>
      </trkpt>
      <trkpt lat="44.40563" lon="2.55744">
        <ele>597</ele>
        <time>2009-01-20T14:28:32Z</time>
      </trkpt>
      <trkpt lat="44.40557" lon="2.55734">
        <ele>597</ele>
        <time>2009-01-20T14:28:42Z</time>
      </trkpt>
      <trkpt lat="44.40552" lon="2.55724">
        <ele>597</ele>
        <time>2009-01-20T14:28:52Z</time>
      </trkpt>
      <trkpt lat="44.40548" lon="2.55713">
        <ele>597</ele>
        <time>2009-01-20T14:28:59Z</time>
      </trkpt>
      <trkpt lat="44.40542" lon="2.55703">
        <ele>597</ele>
        <time>2009-01-20T14:29:08Z</time>
      </trkpt>
      <trkpt lat="44.40537" lon="2.55691">
        <ele>597</ele>
        <time>2009-01-20T14:29:17Z</time>
      </trkpt>
      <trkpt lat="44.40531" lon="2.5568">
        <ele>597</ele>
        <time>2009-01-20T14:29:25Z</time>
      </trkpt>
      <trkpt lat="44.40526" lon="2.5567">
        <ele>597</ele>
        <time>2009-01-20T14:29:33Z</time>
      </trkpt>
      <trkpt lat="44.40521" lon="2.55657">
        <ele>597</ele>
        <time>2009-01-20T14:29:40Z</time>
      </trkpt>
      <trkpt lat="44.40515" lon="2.55647">
        <ele>597</ele>
        <time>2009-01-20T14:29:48Z</time>
      </trkpt>
      <trkpt lat="44.40512" lon="2.55634">
        <ele>597</ele>
        <time>2009-01-20T14:29:56Z</time>
      </trkpt>
      <trkpt lat="44.40507" lon="2.55624">
        <ele>597</ele>
        <time>2009-01-20T14:30:03Z</time>
      </trkpt>
      <trkpt lat="44.40501" lon="2.55613">
        <ele>597</ele>
        <time>2009-01-20T14:30:15Z</time>
      </trkpt>
      <trkpt lat="44.40496" lon="2.55602">
        <ele>597</ele>
        <time>2009-01-20T14:30:24Z</time>
      </trkpt>
      <trkpt lat="44.40492" lon="2.5559">
        <ele>597</ele>
        <time>2009-01-20T14:30:33Z</time>
      </trkpt>
      <trkpt lat="44.40486" lon="2.55581">
        <ele>597</ele>
        <time>2009-01-20T14:30:40Z</time>
      </trkpt>
      <trkpt lat="44.40479" lon="2.55573">
        <ele>597</ele>
        <time>2009-01-20T14:30:50Z</time>
      </trkpt>
      <trkpt lat="44.40474" lon="2.55563">
        <ele>606</ele>
        <time>2009-01-20T14:31:07Z</time>
      </trkpt>
      <trkpt lat="44.40467" lon="2.55553">
        <ele>606</ele>
        <time>2009-01-20T14:31:16Z</time>
      </trkpt>
      <trkpt lat="44.4046" lon="2.55544">
        <ele>606</ele>
        <time>2009-01-20T14:31:26Z</time>
      </trkpt>
      <trkpt lat="44.40452" lon="2.55538">
        <ele>606</ele>
        <time>2009-01-20T14:31:33Z</time>
      </trkpt>
      <trkpt lat="44.40443" lon="2.55529">
        <ele>606</ele>
        <time>2009-01-20T14:31:41Z</time>
      </trkpt>
      <trkpt lat="44.40435" lon="2.55521">
        <ele>606</ele>
        <time>2009-01-20T14:31:50Z</time>
      </trkpt>
      <trkpt lat="44.40425" lon="2.55516">
        <ele>606</ele>
        <time>2009-01-20T14:31:56Z</time>
      </trkpt>
      <trkpt lat="44.40418" lon="2.55509">
        <ele>606</ele>
        <time>2009-01-20T14:32:03Z</time>
      </trkpt>
      <trkpt lat="44.40411" lon="2.55502">
        <ele>599</ele>
        <time>2009-01-20T14:32:11Z</time>
      </trkpt>
      <trkpt lat="44.40404" lon="2.55493">
        <ele>599</ele>
        <time>2009-01-20T14:32:20Z</time>
      </trkpt>
      <trkpt lat="44.40397" lon="2.55483">
        <ele>599</ele>
        <time>2009-01-20T14:32:26Z</time>
      </trkpt>
      <trkpt lat="44.40391" lon="2.55473">
        <ele>599</ele>
        <time>2009-01-20T14:32:32Z</time>
      </trkpt>
      <trkpt lat="44.40386" lon="2.55462">
        <ele>599</ele>
        <time>2009-01-20T14:32:40Z</time>
      </trkpt>
      <trkpt lat="44.40381" lon="2.55451">
        <ele>599</ele>
        <time>2009-01-20T14:32:47Z</time>
      </trkpt>
      <trkpt lat="44.40375" lon="2.55441">
        <ele>599</ele>
        <time>2009-01-20T14:32:53Z</time>
      </trkpt>
      <trkpt lat="44.40369" lon="2.55432">
        <ele>599</ele>
        <time>2009-01-20T14:33:00Z</time>
      </trkpt>
      <trkpt lat="44.40363" lon="2.55422">
        <ele>599</ele>
        <time>2009-01-20T14:33:08Z</time>
      </trkpt>
      <trkpt lat="44.40356" lon="2.55413">
        <ele>599</ele>
        <time>2009-01-20T14:33:16Z</time>
      </trkpt>
      <trkpt lat="44.40349" lon="2.55405">
        <ele>599</ele>
        <time>2009-01-20T14:33:25Z</time>
      </trkpt>
      <trkpt lat="44.40342" lon="2.55397">
        <ele>599</ele>
        <time>2009-01-20T14:33:33Z</time>
      </trkpt>
      <trkpt lat="44.40333" lon="2.55391">
        <ele>599</ele>
        <time>2009-01-20T14:33:40Z</time>
      </trkpt>
      <trkpt lat="44.40324" lon="2.55385">
        <ele>599</ele>
        <time>2009-01-20T14:33:50Z</time>
      </trkpt>
      <trkpt lat="44.40317" lon="2.55378">
        <ele>599</ele>
        <time>2009-01-20T14:33:57Z</time>
      </trkpt>
      <trkpt lat="44.40309" lon="2.5537">
        <ele>599</ele>
        <time>2009-01-20T14:34:03Z</time>
      </trkpt>
      <trkpt lat="44.403" lon="2.55362">
        <ele>591</ele>
        <time>2009-01-20T14:34:10Z</time>
      </trkpt>
      <trkpt lat="44.40291" lon="2.55356">
        <ele>591</ele>
        <time>2009-01-20T14:34:17Z</time>
      </trkpt>
      <trkpt lat="44.40283" lon="2.55351">
        <ele>591</ele>
        <time>2009-01-20T14:34:24Z</time>
      </trkpt>
      <trkpt lat="44.40275" lon="2.55345">
        <ele>591</ele>
        <time>2009-01-20T14:34:31Z</time>
      </trkpt>
      <trkpt lat="44.40266" lon="2.55339">
        <ele>596</ele>
        <time>2009-01-20T14:34:39Z</time>
      </trkpt>
      <trkpt lat="44.40258" lon="2.55333">
        <ele>596</ele>
        <time>2009-01-20T14:34:46Z</time>
      </trkpt>
      <trkpt lat="44.4025" lon="2.55326">
        <ele>596</ele>
        <time>2009-01-20T14:34:54Z</time>
      </trkpt>
      <trkpt lat="44.40243" lon="2.55318">
        <ele>596</ele>
        <time>2009-01-20T14:35:01Z</time>
      </trkpt>
      <trkpt lat="44.40235" lon="2.55311">
        <ele>596</ele>
        <time>2009-01-20T14:35:09Z</time>
      </trkpt>
      <trkpt lat="44.40226" lon="2.55305">
        <ele>596</ele>
        <time>2009-01-20T14:35:17Z</time>
      </trkpt>
      <trkpt lat="44.40218" lon="2.55298">
        <ele>596</ele>
        <time>2009-01-20T14:35:25Z</time>
      </trkpt>
      <trkpt lat="44.4021" lon="2.5529">
        <ele>596</ele>
        <time>2009-01-20T14:35:32Z</time>
      </trkpt>
      <trkpt lat="44.40201" lon="2.55284">
        <ele>596</ele>
        <time>2009-01-20T14:35:39Z</time>
      </trkpt>
      <trkpt lat="44.40193" lon="2.55277">
        <ele>596</ele>
        <time>2009-01-20T14:35:46Z</time>
      </trkpt>
      <trkpt lat="44.40185" lon="2.55269">
        <ele>596</ele>
        <time>2009-01-20T14:35:55Z</time>
      </trkpt>
      <trkpt lat="44.40177" lon="2.55262">
        <ele>596</ele>
        <time>2009-01-20T14:36:03Z</time>
      </trkpt>
      <trkpt lat="44.4017" lon="2.55255">
        <ele>596</ele>
        <time>2009-01-20T14:36:11Z</time>
      </trkpt>
      <trkpt lat="44.40163" lon="2.55247">
        <ele>596</ele>
        <time>2009-01-20T14:36:18Z</time>
      </trkpt>
      <trkpt lat="44.40156" lon="2.55239">
        <ele>596</ele>
        <time>2009-01-20T14:36:27Z</time>
      </trkpt>
      <trkpt lat="44.40147" lon="2.55232">
        <ele>596</ele>
        <time>2009-01-20T14:36:34Z</time>
      </trkpt>
      <trkpt lat="44.40139" lon="2.55222">
        <ele>596</ele>
        <time>2009-01-20T14:36:41Z</time>
      </trkpt>
      <trkpt lat="44.40132" lon="2.55214">
        <ele>596</ele>
        <time>2009-01-20T14:36:48Z</time>
      </trkpt>
      <trkpt lat="44.40126" lon="2.55205">
        <ele>596</ele>
        <time>2009-01-20T14:36:56Z</time>
      </trkpt>
      <trkpt lat="44.40119" lon="2.55198">
        <ele>596</ele>
        <time>2009-01-20T14:37:02Z</time>
      </trkpt>
      <trkpt lat="44.40112" lon="2.5519">
        <ele>596</ele>
        <time>2009-01-20T14:37:09Z</time>
      </trkpt>
      <trkpt lat="44.40105" lon="2.55181">
        <ele>596</ele>
        <time>2009-01-20T14:37:17Z</time>
      </trkpt>
      <trkpt lat="44.40098" lon="2.55173">
        <ele>591</ele>
        <time>2009-01-20T14:37:25Z</time>
      </trkpt>
      <trkpt lat="44.40091" lon="2.55164">
        <ele>591</ele>
        <time>2009-01-20T14:37:33Z</time>
      </trkpt>
      <trkpt lat="44.40082" lon="2.55158">
        <ele>591</ele>
        <time>2009-01-20T14:37:41Z</time>
      </trkpt>
      <trkpt lat="44.40075" lon="2.5515">
        <ele>591</ele>
        <time>2009-01-20T14:37:49Z</time>
      </trkpt>
      <trkpt lat="44.40067" lon="2.55143">
        <ele>591</ele>
        <time>2009-01-20T14:37:57Z</time>
      </trkpt>
      <trkpt lat="44.4006" lon="2.55136">
        <ele>591</ele>
        <time>2009-01-20T14:38:05Z</time>
      </trkpt>
      <trkpt lat="44.40053" lon="2.55129">
        <ele>591</ele>
        <time>2009-01-20T14:38:13Z</time>
      </trkpt>
      <trkpt lat="44.40044" lon="2.55122">
        <ele>591</ele>
        <time>2009-01-20T14:38:21Z</time>
      </trkpt>
      <trkpt lat="44.40036" lon="2.55115">
        <ele>591</ele>
        <time>2009-01-20T14:38:26Z</time>
      </trkpt>
      <trkpt lat="44.40029" lon="2.55107">
        <ele>591</ele>
        <time>2009-01-20T14:38:33Z</time>
      </trkpt>
      <trkpt lat="44.40021" lon="2.55099">
        <ele>591</ele>
        <time>2009-01-20T14:38:41Z</time>
      </trkpt>
      <trkpt lat="44.40014" lon="2.55092">
        <ele>591</ele>
        <time>2009-01-20T14:38:49Z</time>
      </trkpt>
      <trkpt lat="44.40007" lon="2.55084">
        <ele>591</ele>
        <time>2009-01-20T14:38:59Z</time>
      </trkpt>
      <trkpt lat="44.39998" lon="2.55077">
        <ele>591</ele>
        <time>2009-01-20T14:39:07Z</time>
      </trkpt>
      <trkpt lat="44.39991" lon="2.55069">
        <ele>591</ele>
        <time>2009-01-20T14:39:14Z</time>
      </trkpt>
      <trkpt lat="44.39984" lon="2.55061">
        <ele>591</ele>
        <time>2009-01-20T14:39:20Z</time>
      </trkpt>
      <trkpt lat="44.39977" lon="2.55053">
        <ele>591</ele>
        <time>2009-01-20T14:39:28Z</time>
      </trkpt>
      <trkpt lat="44.39971" lon="2.55044">
        <ele>591</ele>
        <time>2009-01-20T14:39:36Z</time>
      </trkpt>
      <trkpt lat="44.39962" lon="2.55037">
        <ele>591</ele>
        <time>2009-01-20T14:39:45Z</time>
      </trkpt>
      <trkpt lat="44.39953" lon="2.55032">
        <ele>591</ele>
        <time>2009-01-20T14:39:52Z</time>
      </trkpt>
      <trkpt lat="44.39946" lon="2.55023">
        <ele>591</ele>
        <time>2009-01-20T14:40:01Z</time>
      </trkpt>
      <trkpt lat="44.39939" lon="2.55014">
        <ele>591</ele>
        <time>2009-01-20T14:40:09Z</time>
      </trkpt>
      <trkpt lat="44.39931" lon="2.55008">
        <ele>591</ele>
        <time>2009-01-20T14:40:17Z</time>
      </trkpt>
      <trkpt lat="44.39922" lon="2.55">
        <ele>591</ele>
        <time>2009-01-20T14:40:26Z</time>
      </trkpt>
      <trkpt lat="44.39915" lon="2.54992">
        <ele>591</ele>
        <time>2009-01-20T14:40:34Z</time>
      </trkpt>
      <trkpt lat="44.39905" lon="2.54987">
        <ele>591</ele>
        <time>2009-01-20T14:40:41Z</time>
      </trkpt>
      <trkpt lat="44.39897" lon="2.5498">
        <ele>591</ele>
        <time>2009-01-20T14:40:50Z</time>
      </trkpt>
      <trkpt lat="44.39888" lon="2.54973">
        <ele>591</ele>
        <time>2009-01-20T14:40:58Z</time>
      </trkpt>
      <trkpt lat="44.3988" lon="2.54968">
        <ele>591</ele>
        <time>2009-01-20T14:41:05Z</time>
      </trkpt>
      <trkpt lat="44.39872" lon="2.54961">
        <ele>591</ele>
        <time>2009-01-20T14:41:13Z</time>
      </trkpt>
      <trkpt lat="44.39864" lon="2.54955">
        <ele>591</ele>
        <time>2009-01-20T14:41:21Z</time>
      </trkpt>
      <trkpt lat="44.39855" lon="2.54948">
        <ele>591</ele>
        <time>2009-01-20T14:41:30Z</time>
      </trkpt>
      <trkpt lat="44.39848" lon="2.5494">
        <ele>591</ele>
        <time>2009-01-20T14:41:38Z</time>
      </trkpt>
      <trkpt lat="44.39839" lon="2.54936">
        <ele>591</ele>
        <time>2009-01-20T14:41:45Z</time>
      </trkpt>
      <trkpt lat="44.39831" lon="2.5493">
        <ele>591</ele>
        <time>2009-01-20T14:41:56Z</time>
      </trkpt>
      <trkpt lat="44.39823" lon="2.54925">
        <ele>591</ele>
        <time>2009-01-20T14:42:04Z</time>
      </trkpt>
      <trkpt lat="44.39814" lon="2.5492">
        <ele>591</ele>
        <time>2009-01-20T14:42:12Z</time>
      </trkpt>
      <trkpt lat="44.39806" lon="2.54914">
        <ele>597</ele>
        <time>2009-01-20T14:42:22Z</time>
      </trkpt>
      <trkpt lat="44.39797" lon="2.54908">
        <ele>597</ele>
        <time>2009-01-20T14:42:30Z</time>
      </trkpt>
      <trkpt lat="44.39788" lon="2.54902">
        <ele>597</ele>
        <time>2009-01-20T14:42:40Z</time>
      </trkpt>
      <trkpt lat="44.3978" lon="2.54895">
        <ele>597</ele>
        <time>2009-01-20T14:42:48Z</time>
      </trkpt>
      <trkpt lat="44.39771" lon="2.54888">
        <ele>597</ele>
        <time>2009-01-20T14:42:55Z</time>
      </trkpt>
      <trkpt lat="44.39763" lon="2.54883">
        <ele>597</ele>
        <time>2009-01-20T14:43:03Z</time>
      </trkpt>
      <trkpt lat="44.39754" lon="2.54877">
        <ele>597</ele>
        <time>2009-01-20T14:43:10Z</time>
      </trkpt>
      <trkpt lat="44.39746" lon="2.54872">
        <ele>597</ele>
        <time>2009-01-20T14:43:18Z</time>
      </trkpt>
      <trkpt lat="44.39738" lon="2.54866">
        <ele>597</ele>
        <time>2009-01-20T14:43:28Z</time>
      </trkpt>
      <trkpt lat="44.39729" lon="2.54862">
        <ele>597</ele>
        <time>2009-01-20T14:43:36Z</time>
      </trkpt>
      <trkpt lat="44.39721" lon="2.54856">
        <ele>597</ele>
        <time>2009-01-20T14:43:45Z</time>
      </trkpt>
      <trkpt lat="44.39712" lon="2.54852">
        <ele>597</ele>
        <time>2009-01-20T14:43:54Z</time>
      </trkpt>
      <trkpt lat="44.39703" lon="2.54846">
        <ele>597</ele>
        <time>2009-01-20T14:44:03Z</time>
      </trkpt>
      <trkpt lat="44.39696" lon="2.54839">
        <ele>597</ele>
        <time>2009-01-20T14:44:14Z</time>
      </trkpt>
      <trkpt lat="44.39687" lon="2.54835">
        <ele>604</ele>
        <time>2009-01-20T14:44:24Z</time>
      </trkpt>
      <trkpt lat="44.3968" lon="2.54829">
        <ele>604</ele>
        <time>2009-01-20T14:44:33Z</time>
      </trkpt>
      <trkpt lat="44.39672" lon="2.54822">
        <ele>604</ele>
        <time>2009-01-20T14:44:49Z</time>
      </trkpt>
      <trkpt lat="44.39664" lon="2.54818">
        <ele>604</ele>
        <time>2009-01-20T14:45:00Z</time>
      </trkpt>
      <trkpt lat="44.39656" lon="2.54812">
        <ele>604</ele>
        <time>2009-01-20T14:45:11Z</time>
      </trkpt>
      <trkpt lat="44.39648" lon="2.54805">
        <ele>604</ele>
        <time>2009-01-20T14:45:21Z</time>
      </trkpt>
      <trkpt lat="44.3964" lon="2.54798">
        <ele>604</ele>
        <time>2009-01-20T14:45:32Z</time>
      </trkpt>
      <trkpt lat="44.39631" lon="2.54792">
        <ele>604</ele>
        <time>2009-01-20T14:45:42Z</time>
      </trkpt>
      <trkpt lat="44.39623" lon="2.54787">
        <ele>604</ele>
        <time>2009-01-20T14:45:52Z</time>
      </trkpt>
      <trkpt lat="44.39615" lon="2.5478">
        <ele>611</ele>
        <time>2009-01-20T14:46:02Z</time>
      </trkpt>
      <trkpt lat="44.39607" lon="2.54774">
        <ele>611</ele>
        <time>2009-01-20T14:46:12Z</time>
      </trkpt>
      <trkpt lat="44.39598" lon="2.54769">
        <ele>611</ele>
        <time>2009-01-20T14:46:21Z</time>
      </trkpt>
      <trkpt lat="44.3959" lon="2.54762">
        <ele>611</ele>
        <time>2009-01-20T14:46:31Z</time>
      </trkpt>
      <trkpt lat="44.39582" lon="2.54755">
        <ele>611</ele>
        <time>2009-01-20T14:46:40Z</time>
      </trkpt>
      <trkpt lat="44.39575" lon="2.54749">
        <ele>611</ele>
        <time>2009-01-20T14:46:49Z</time>
      </trkpt>
      <trkpt lat="44.39568" lon="2.54742">
        <ele>611</ele>
        <time>2009-01-20T14:47:01Z</time>
      </trkpt>
      <trkpt lat="44.3956" lon="2.54733">
        <ele>611</ele>
        <time>2009-01-20T14:47:10Z</time>
      </trkpt>
      <trkpt lat="44.39553" lon="2.54725">
        <ele>611</ele>
        <time>2009-01-20T14:47:18Z</time>
      </trkpt>
      <trkpt lat="44.39546" lon="2.54715">
        <ele>611</ele>
        <time>2009-01-20T14:47:26Z</time>
      </trkpt>
      <trkpt lat="44.39539" lon="2.54705">
        <ele>611</ele>
        <time>2009-01-20T14:47:35Z</time>
      </trkpt>
      <trkpt lat="44.39531" lon="2.54697">
        <ele>611</ele>
        <time>2009-01-20T14:47:43Z</time>
      </trkpt>
      <trkpt lat="44.39524" lon="2.54689">
        <ele>611</ele>
        <time>2009-01-20T14:47:51Z</time>
      </trkpt>
      <trkpt lat="44.39517" lon="2.54682">
        <ele>611</ele>
        <time>2009-01-20T14:47:59Z</time>
      </trkpt>
      <trkpt lat="44.39508" lon="2.54678">
        <ele>611</ele>
        <time>2009-01-20T14:48:07Z</time>
      </trkpt>
      <trkpt lat="44.39499" lon="2.54675">
        <ele>611</ele>
        <time>2009-01-20T14:48:15Z</time>
      </trkpt>
      <trkpt lat="44.3949" lon="2.54673">
        <ele>611</ele>
        <time>2009-01-20T14:48:23Z</time>
      </trkpt>
      <trkpt lat="44.39481" lon="2.54672">
        <ele>611</ele>
        <time>2009-01-20T14:48:31Z</time>
      </trkpt>
      <trkpt lat="44.39472" lon="2.5467">
        <ele>611</ele>
        <time>2009-01-20T14:48:39Z</time>
      </trkpt>
      <trkpt lat="44.39463" lon="2.54667">
        <ele>611</ele>
        <time>2009-01-20T14:48:46Z</time>
      </trkpt>
      <trkpt lat="44.39454" lon="2.54665">
        <ele>611</ele>
        <time>2009-01-20T14:48:54Z</time>
      </trkpt>
      <trkpt lat="44.39445" lon="2.54663">
        <ele>611</ele>
        <time>2009-01-20T14:49:03Z</time>
      </trkpt>
      <trkpt lat="44.39437" lon="2.54659">
        <ele>611</ele>
        <time>2009-01-20T14:49:13Z</time>
      </trkpt>
      <trkpt lat="44.39428" lon="2.54655">
        <ele>611</ele>
        <time>2009-01-20T14:49:22Z</time>
      </trkpt>
      <trkpt lat="44.39419" lon="2.54654">
        <ele>616</ele>
        <time>2009-01-20T14:49:29Z</time>
      </trkpt>
      <trkpt lat="44.3941" lon="2.54648">
        <ele>616</ele>
        <time>2009-01-20T14:49:37Z</time>
      </trkpt>
      <trkpt lat="44.39403" lon="2.5464">
        <ele>616</ele>
        <time>2009-01-20T14:49:46Z</time>
      </trkpt>
      <trkpt lat="44.39397" lon="2.5463">
        <ele>616</ele>
        <time>2009-01-20T14:49:56Z</time>
      </trkpt>
      <trkpt lat="44.39392" lon="2.5462">
        <ele>616</ele>
        <time>2009-01-20T14:50:05Z</time>
      </trkpt>
      <trkpt lat="44.39387" lon="2.5461">
        <ele>616</ele>
        <time>2009-01-20T14:50:15Z</time>
      </trkpt>
      <trkpt lat="44.39383" lon="2.54599">
        <ele>616</ele>
        <time>2009-01-20T14:50:23Z</time>
      </trkpt>
      <trkpt lat="44.39376" lon="2.54589">
        <ele>616</ele>
        <time>2009-01-20T14:50:33Z</time>
      </trkpt>
      <trkpt lat="44.39372" lon="2.54578">
        <ele>616</ele>
        <time>2009-01-20T14:50:42Z</time>
      </trkpt>
      <trkpt lat="44.39366" lon="2.54568">
        <ele>616</ele>
        <time>2009-01-20T14:50:50Z</time>
      </trkpt>
      <trkpt lat="44.39363" lon="2.54556">
        <ele>616</ele>
        <time>2009-01-20T14:50:57Z</time>
      </trkpt>
      <trkpt lat="44.3936" lon="2.54544">
        <ele>616</ele>
        <time>2009-01-20T14:51:07Z</time>
      </trkpt>
      <trkpt lat="44.39356" lon="2.54531">
        <ele>616</ele>
        <time>2009-01-20T14:51:18Z</time>
      </trkpt>
      <trkpt lat="44.39351" lon="2.5452">
        <ele>616</ele>
        <time>2009-01-20T14:51:27Z</time>
      </trkpt>
      <trkpt lat="44.39349" lon="2.54506">
        <ele>616</ele>
        <time>2009-01-20T14:51:34Z</time>
      </trkpt>
      <trkpt lat="44.39345" lon="2.54495">
        <ele>616</ele>
        <time>2009-01-20T14:51:43Z</time>
      </trkpt>
      <trkpt lat="44.39341" lon="2.54484">
        <ele>616</ele>
        <time>2009-01-20T14:51:52Z</time>
      </trkpt>
      <trkpt lat="44.39337" lon="2.54473">
        <ele>622</ele>
        <time>2009-01-20T14:52:02Z</time>
      </trkpt>
      <trkpt lat="44.39333" lon="2.54461">
        <ele>622</ele>
        <time>2009-01-20T14:52:11Z</time>
      </trkpt>
      <trkpt lat="44.3933" lon="2.5445">
        <ele>622</ele>
        <time>2009-01-20T14:52:18Z</time>
      </trkpt>
      <trkpt lat="44.39327" lon="2.54437">
        <ele>622</ele>
        <time>2009-01-20T14:52:26Z</time>
      </trkpt>
      <trkpt lat="44.39324" lon="2.54424">
        <ele>622</ele>
        <time>2009-01-20T14:52:33Z</time>
      </trkpt>
      <trkpt lat="44.3932" lon="2.54413">
        <ele>622</ele>
        <time>2009-01-20T14:52:40Z</time>
      </trkpt>
      <trkpt lat="44.39316" lon="2.54401">
        <ele>622</ele>
        <time>2009-01-20T14:52:47Z</time>
      </trkpt>
      <trkpt lat="44.39312" lon="2.54389">
        <ele>622</ele>
        <time>2009-01-20T14:52:55Z</time>
      </trkpt>
      <trkpt lat="44.39308" lon="2.54378">
        <ele>622</ele>
        <time>2009-01-20T14:53:03Z</time>
      </trkpt>
      <trkpt lat="44.39305" lon="2.54366">
        <ele>622</ele>
        <time>2009-01-20T14:53:10Z</time>
      </trkpt>
      <trkpt lat="44.39301" lon="2.54354">
        <ele>622</ele>
        <time>2009-01-20T14:53:18Z</time>
      </trkpt>
      <trkpt lat="44.39298" lon="2.54343">
        <ele>622</ele>
        <time>2009-01-20T14:53:25Z</time>
      </trkpt>
      <trkpt lat="44.39294" lon="2.54331">
        <ele>622</ele>
        <time>2009-01-20T14:53:32Z</time>
      </trkpt>
      <trkpt lat="44.39291" lon="2.54319">
        <ele>622</ele>
        <time>2009-01-20T14:53:41Z</time>
      </trkpt>
      <trkpt lat="44.39289" lon="2.54308">
        <ele>622</ele>
        <time>2009-01-20T14:53:50Z</time>
      </trkpt>
      <trkpt lat="44.39285" lon="2.54295">
        <ele>622</ele>
        <time>2009-01-20T14:53:58Z</time>
      </trkpt>
      <trkpt lat="44.39279" lon="2.54284">
        <ele>622</ele>
        <time>2009-01-20T14:54:05Z</time>
      </trkpt>
      <trkpt lat="44.39274" lon="2.54272">
        <ele>622</ele>
        <time>2009-01-20T14:54:13Z</time>
      </trkpt>
      <trkpt lat="44.39271" lon="2.54259">
        <ele>622</ele>
        <time>2009-01-20T14:54:21Z</time>
      </trkpt>
      <trkpt lat="44.39266" lon="2.54248">
        <ele>622</ele>
        <time>2009-01-20T14:54:28Z</time>
      </trkpt>
      <trkpt lat="44.39262" lon="2.54237">
        <ele>622</ele>
        <time>2009-01-20T14:54:35Z</time>
      </trkpt>
      <trkpt lat="44.39257" lon="2.54225">
        <ele>622</ele>
        <time>2009-01-20T14:54:45Z</time>
      </trkpt>
      <trkpt lat="44.39253" lon="2.54212">
        <ele>622</ele>
        <time>2009-01-20T14:54:53Z</time>
      </trkpt>
      <trkpt lat="44.39248" lon="2.54201">
        <ele>622</ele>
        <time>2009-01-20T14:55:00Z</time>
      </trkpt>
      <trkpt lat="44.39244" lon="2.54189">
        <ele>622</ele>
        <time>2009-01-20T14:55:08Z</time>
      </trkpt>
      <trkpt lat="44.3924" lon="2.54177">
        <ele>622</ele>
        <time>2009-01-20T14:55:15Z</time>
      </trkpt>
      <trkpt lat="44.39235" lon="2.54167">
        <ele>622</ele>
        <time>2009-01-20T14:55:22Z</time>
      </trkpt>
      <trkpt lat="44.39229" lon="2.54154">
        <ele>622</ele>
        <time>2009-01-20T14:55:30Z</time>
      </trkpt>
      <trkpt lat="44.39224" lon="2.54144">
        <ele>622</ele>
        <time>2009-01-20T14:55:39Z</time>
      </trkpt>
      <trkpt lat="44.39218" lon="2.54133">
        <ele>622</ele>
        <time>2009-01-20T14:55:47Z</time>
      </trkpt>
      <trkpt lat="44.39212" lon="2.54124">
        <ele>622</ele>
        <time>2009-01-20T14:55:55Z</time>
      </trkpt>
      <trkpt lat="44.39206" lon="2.54115">
        <ele>622</ele>
        <time>2009-01-20T14:56:02Z</time>
      </trkpt>
      <trkpt lat="44.392" lon="2.54106">
        <ele>622</ele>
        <time>2009-01-20T14:56:10Z</time>
      </trkpt>
      <trkpt lat="44.39193" lon="2.54097">
        <ele>622</ele>
        <time>2009-01-20T14:56:18Z</time>
      </trkpt>
      <trkpt lat="44.39185" lon="2.54088">
        <ele>622</ele>
        <time>2009-01-20T14:56:27Z</time>
      </trkpt>
      <trkpt lat="44.39178" lon="2.5408">
        <ele>622</ele>
        <time>2009-01-20T14:56:35Z</time>
      </trkpt>
      <trkpt lat="44.39171" lon="2.54072">
        <ele>622</ele>
        <time>2009-01-20T14:56:42Z</time>
      </trkpt>
      <trkpt lat="44.39164" lon="2.54063">
        <ele>622</ele>
        <time>2009-01-20T14:56:50Z</time>
      </trkpt>
      <trkpt lat="44.39157" lon="2.54054">
        <ele>622</ele>
        <time>2009-01-20T14:56:59Z</time>
      </trkpt>
      <trkpt lat="44.3915" lon="2.54047">
        <ele>622</ele>
        <time>2009-01-20T14:57:08Z</time>
      </trkpt>
      <trkpt lat="44.39141" lon="2.54043">
        <ele>627</ele>
        <time>2009-01-20T14:57:18Z</time>
      </trkpt>
      <trkpt lat="44.39133" lon="2.54036">
        <ele>627</ele>
        <time>2009-01-20T14:57:27Z</time>
      </trkpt>
      <trkpt lat="44.39124" lon="2.54031">
        <ele>627</ele>
        <time>2009-01-20T14:57:37Z</time>
      </trkpt>
      <trkpt lat="44.39115" lon="2.54027">
        <ele>627</ele>
        <time>2009-01-20T14:57:48Z</time>
      </trkpt>
      <trkpt lat="44.39106" lon="2.54022">
        <ele>627</ele>
        <time>2009-01-20T14:57:57Z</time>
      </trkpt>
      <trkpt lat="44.39099" lon="2.54016">
        <ele>627</ele>
        <time>2009-01-20T14:58:05Z</time>
      </trkpt>
      <trkpt lat="44.39092" lon="2.54007">
        <ele>627</ele>
        <time>2009-01-20T14:58:48Z</time>
      </trkpt>
      <trkpt lat="44.39095" lon="2.53995">
        <ele>627</ele>
        <time>2009-01-20T14:59:02Z</time>
      </trkpt>
      <trkpt lat="44.39102" lon="2.53986">
        <ele>627</ele>
        <time>2009-01-20T14:59:19Z</time>
      </trkpt>
      <trkpt lat="44.39105" lon="2.53974">
        <ele>627</ele>
        <time>2009-01-20T14:59:33Z</time>
      </trkpt>
      <trkpt lat="44.39108" lon="2.53962">
        <ele>627</ele>
        <time>2009-01-20T14:59:41Z</time>
      </trkpt>
      <trkpt lat="44.39112" lon="2.53949">
        <ele>627</ele>
        <time>2009-01-20T14:59:50Z</time>
      </trkpt>
      <trkpt lat="44.39114" lon="2.53938">
        <ele>627</ele>
        <time>2009-01-20T15:00:00Z</time>
      </trkpt>
      <trkpt lat="44.39113" lon="2.53925">
        <ele>627</ele>
        <time>2009-01-20T15:00:15Z</time>
      </trkpt>
      <trkpt lat="44.39114" lon="2.53912">
        <ele>627</ele>
        <time>2009-01-20T15:00:29Z</time>
      </trkpt>
      <trkpt lat="44.39115" lon="2.539">
        <ele>633</ele>
        <time>2009-01-20T15:00:38Z</time>
      </trkpt>
      <trkpt lat="44.3911" lon="2.53888">
        <ele>633</ele>
        <time>2009-01-20T15:00:49Z</time>
      </trkpt>
      <trkpt lat="44.39109" lon="2.53876">
        <ele>633</ele>
        <time>2009-01-20T15:01:34Z</time>
      </trkpt>
      <trkpt lat="44.39103" lon="2.53885">
        <ele>633</ele>
        <time>2009-01-20T15:02:08Z</time>
      </trkpt>
      <trkpt lat="44.39094" lon="2.53881">
        <ele>631</ele>
        <time>2009-01-20T15:03:39Z</time>
      </trkpt>
    </trkseg>
  </trk>
</gpx>